<?xml version="1.0" encoding="UTF-8" standalone="no" ?>
<gpx xmlns="http://www.topografix.com/GPX/1/1" xmlns:xsi="http://www.w3.org/2001/XMLSchema-instance" xsi:schemaLocation="http://www.topografix.com/GPX/1/1 http://www.topografix.com/GPX/1/1/gpx.xsd" version="1.1" creator="VisuGPX - https://www.visugpx.com">
  <metadata>
    <name>Aiguille du Clapet</name>
    <desc><![CDATA[Ski de randonnée]]></desc>
  </metadata>
  <trk>
    <name><![CDATA[Le Clapet]]></name>
    <trkseg>
      <trkpt lat="45.64288" lon="6.80014">
        <ele>1786.1</ele>
        <time>2011-03-27T06:26:33Z</time>
      </trkpt>
      <trkpt lat="45.64288" lon="6.80014">
        <ele>1786.1</ele>
        <time>2011-03-27T06:26:34Z</time>
      </trkpt>
      <trkpt lat="45.643" lon="6.80031">
        <ele>1789.6</ele>
        <time>2011-03-27T06:27:14Z</time>
      </trkpt>
      <trkpt lat="45.64308" lon="6.80038">
        <ele>1791.8</ele>
        <time>2011-03-27T06:27:26Z</time>
      </trkpt>
      <trkpt lat="45.64314" lon="6.80047">
        <ele>1791.9</ele>
        <time>2011-03-27T06:27:39Z</time>
      </trkpt>
      <trkpt lat="45.64315" lon="6.80048">
        <ele>1791.9</ele>
        <time>2011-03-27T06:27:40Z</time>
      </trkpt>
      <trkpt lat="45.64325" lon="6.80062">
        <ele>1795.5</ele>
        <time>2011-03-27T06:27:53Z</time>
      </trkpt>
      <trkpt lat="45.64331" lon="6.80069">
        <ele>1797.3</ele>
        <time>2011-03-27T06:27:59Z</time>
      </trkpt>
      <trkpt lat="45.64338" lon="6.80076">
        <ele>1798.6</ele>
        <time>2011-03-27T06:28:06Z</time>
      </trkpt>
      <trkpt lat="45.6434" lon="6.80088">
        <ele>1799.7</ele>
        <time>2011-03-27T06:28:47Z</time>
      </trkpt>
      <trkpt lat="45.64341" lon="6.8009">
        <ele>1799.7</ele>
        <time>2011-03-27T06:28:48Z</time>
      </trkpt>
      <trkpt lat="45.6434" lon="6.80112">
        <ele>1802.3</ele>
        <time>2011-03-27T06:29:10Z</time>
      </trkpt>
      <trkpt lat="45.64338" lon="6.80124">
        <ele>1805.3</ele>
        <time>2011-03-27T06:29:29Z</time>
      </trkpt>
      <trkpt lat="45.64344" lon="6.80133">
        <ele>1806</ele>
        <time>2011-03-27T06:29:39Z</time>
      </trkpt>
      <trkpt lat="45.64351" lon="6.8014">
        <ele>1807</ele>
        <time>2011-03-27T06:29:54Z</time>
      </trkpt>
      <trkpt lat="45.64353" lon="6.8014">
        <ele>1807</ele>
        <time>2011-03-27T06:29:55Z</time>
      </trkpt>
      <trkpt lat="45.64367" lon="6.80132">
        <ele>1807.7</ele>
        <time>2011-03-27T06:30:14Z</time>
      </trkpt>
      <trkpt lat="45.64374" lon="6.80139">
        <ele>1810.1</ele>
        <time>2011-03-27T06:30:32Z</time>
      </trkpt>
      <trkpt lat="45.64383" lon="6.80137">
        <ele>1813.3</ele>
        <time>2011-03-27T06:30:59Z</time>
      </trkpt>
      <trkpt lat="45.64383" lon="6.80138">
        <ele>1813.3</ele>
        <time>2011-03-27T06:31:00Z</time>
      </trkpt>
      <trkpt lat="45.64398" lon="6.80149">
        <ele>1816.2</ele>
        <time>2011-03-27T06:31:26Z</time>
      </trkpt>
      <trkpt lat="45.64405" lon="6.80156">
        <ele>1817.1</ele>
        <time>2011-03-27T06:31:35Z</time>
      </trkpt>
      <trkpt lat="45.64413" lon="6.80161">
        <ele>1816.9</ele>
        <time>2011-03-27T06:31:57Z</time>
      </trkpt>
      <trkpt lat="45.64415" lon="6.80173">
        <ele>1818.6</ele>
        <time>2011-03-27T06:32:48Z</time>
      </trkpt>
      <trkpt lat="45.64416" lon="6.80174">
        <ele>1818.6</ele>
        <time>2011-03-27T06:32:49Z</time>
      </trkpt>
      <trkpt lat="45.64427" lon="6.80191">
        <ele>1821</ele>
        <time>2011-03-27T06:33:06Z</time>
      </trkpt>
      <trkpt lat="45.64433" lon="6.802">
        <ele>1822.5</ele>
        <time>2011-03-27T06:33:15Z</time>
      </trkpt>
      <trkpt lat="45.64435" lon="6.80212">
        <ele>1824</ele>
        <time>2011-03-27T06:33:25Z</time>
      </trkpt>
      <trkpt lat="45.64438" lon="6.80224">
        <ele>1826.2</ele>
        <time>2011-03-27T06:33:34Z</time>
      </trkpt>
      <trkpt lat="45.64442" lon="6.80234">
        <ele>1828.1</ele>
        <time>2011-03-27T06:33:45Z</time>
      </trkpt>
      <trkpt lat="45.64448" lon="6.80242">
        <ele>1829.9</ele>
        <time>2011-03-27T06:33:56Z</time>
      </trkpt>
      <trkpt lat="45.64449" lon="6.80242">
        <ele>1829.9</ele>
        <time>2011-03-27T06:33:57Z</time>
      </trkpt>
      <trkpt lat="45.64464" lon="6.80251">
        <ele>1834.1</ele>
        <time>2011-03-27T06:34:24Z</time>
      </trkpt>
      <trkpt lat="45.64472" lon="6.80252">
        <ele>1835.8</ele>
        <time>2011-03-27T06:34:39Z</time>
      </trkpt>
      <trkpt lat="45.64479" lon="6.80259">
        <ele>1837.8</ele>
        <time>2011-03-27T06:34:51Z</time>
      </trkpt>
      <trkpt lat="45.64486" lon="6.80268">
        <ele>1839.5</ele>
        <time>2011-03-27T06:35:04Z</time>
      </trkpt>
      <trkpt lat="45.64486" lon="6.80269">
        <ele>1839.5</ele>
        <time>2011-03-27T06:35:05Z</time>
      </trkpt>
      <trkpt lat="45.64496" lon="6.80288">
        <ele>1843</ele>
        <time>2011-03-27T06:35:29Z</time>
      </trkpt>
      <trkpt lat="45.64497" lon="6.803">
        <ele>1845.3</ele>
        <time>2011-03-27T06:35:41Z</time>
      </trkpt>
      <trkpt lat="45.645" lon="6.80312">
        <ele>1847.7</ele>
        <time>2011-03-27T06:35:55Z</time>
      </trkpt>
      <trkpt lat="45.64501" lon="6.80324">
        <ele>1849.3</ele>
        <time>2011-03-27T06:36:07Z</time>
      </trkpt>
      <trkpt lat="45.64501" lon="6.80325">
        <ele>1849.3</ele>
        <time>2011-03-27T06:36:08Z</time>
      </trkpt>
      <trkpt lat="45.64498" lon="6.80348">
        <ele>1852.5</ele>
        <time>2011-03-27T06:36:28Z</time>
      </trkpt>
      <trkpt lat="45.64498" lon="6.8036">
        <ele>1852.7</ele>
        <time>2011-03-27T06:36:36Z</time>
      </trkpt>
      <trkpt lat="45.64499" lon="6.80371">
        <ele>1853</ele>
        <time>2011-03-27T06:36:45Z</time>
      </trkpt>
      <trkpt lat="45.64508" lon="6.80371">
        <ele>1850.6</ele>
        <time>2011-03-27T06:42:25Z</time>
      </trkpt>
      <trkpt lat="45.64508" lon="6.8037">
        <ele>1850.6</ele>
        <time>2011-03-27T06:42:26Z</time>
      </trkpt>
      <trkpt lat="45.6452" lon="6.80356">
        <ele>1852.6</ele>
        <time>2011-03-27T06:42:51Z</time>
      </trkpt>
      <trkpt lat="45.64527" lon="6.80348">
        <ele>1852.3</ele>
        <time>2011-03-27T06:43:02Z</time>
      </trkpt>
      <trkpt lat="45.6453" lon="6.80337">
        <ele>1854</ele>
        <time>2011-03-27T06:43:14Z</time>
      </trkpt>
      <trkpt lat="45.64533" lon="6.80326">
        <ele>1856.9</ele>
        <time>2011-03-27T06:43:26Z</time>
      </trkpt>
      <trkpt lat="45.64534" lon="6.80325">
        <ele>1856.9</ele>
        <time>2011-03-27T06:43:27Z</time>
      </trkpt>
      <trkpt lat="45.64541" lon="6.80303">
        <ele>1859.1</ele>
        <time>2011-03-27T06:43:47Z</time>
      </trkpt>
      <trkpt lat="45.64545" lon="6.80292">
        <ele>1859.7</ele>
        <time>2011-03-27T06:44:00Z</time>
      </trkpt>
      <trkpt lat="45.64548" lon="6.8028">
        <ele>1861.1</ele>
        <time>2011-03-27T06:44:13Z</time>
      </trkpt>
      <trkpt lat="45.6455" lon="6.80268">
        <ele>1863.9</ele>
        <time>2011-03-27T06:44:26Z</time>
      </trkpt>
      <trkpt lat="45.64554" lon="6.80257">
        <ele>1863.7</ele>
        <time>2011-03-27T06:44:38Z</time>
      </trkpt>
      <trkpt lat="45.64554" lon="6.80256">
        <ele>1863.7</ele>
        <time>2011-03-27T06:44:39Z</time>
      </trkpt>
      <trkpt lat="45.64556" lon="6.80269">
        <ele>1864.1</ele>
        <time>2011-03-27T06:46:24Z</time>
      </trkpt>
      <trkpt lat="45.64556" lon="6.80292">
        <ele>1866.4</ele>
        <time>2011-03-27T06:46:43Z</time>
      </trkpt>
      <trkpt lat="45.64558" lon="6.80304">
        <ele>1867.6</ele>
        <time>2011-03-27T06:46:54Z</time>
      </trkpt>
      <trkpt lat="45.64559" lon="6.80316">
        <ele>1870.4</ele>
        <time>2011-03-27T06:47:04Z</time>
      </trkpt>
      <trkpt lat="45.64561" lon="6.80327">
        <ele>1868.3</ele>
        <time>2011-03-27T06:47:13Z</time>
      </trkpt>
      <trkpt lat="45.64562" lon="6.80339">
        <ele>1870.1</ele>
        <time>2011-03-27T06:47:23Z</time>
      </trkpt>
      <trkpt lat="45.64571" lon="6.80339">
        <ele>1872.5</ele>
        <time>2011-03-27T06:47:38Z</time>
      </trkpt>
      <trkpt lat="45.64571" lon="6.80338">
        <ele>1872.5</ele>
        <time>2011-03-27T06:47:39Z</time>
      </trkpt>
      <trkpt lat="45.64565" lon="6.80349">
        <ele>1871.7</ele>
        <time>2011-03-27T06:49:02Z</time>
      </trkpt>
      <trkpt lat="45.64567" lon="6.80371">
        <ele>1872.3</ele>
        <time>2011-03-27T06:49:53Z</time>
      </trkpt>
      <trkpt lat="45.6457" lon="6.80383">
        <ele>1871.5</ele>
        <time>2011-03-27T06:50:02Z</time>
      </trkpt>
      <trkpt lat="45.64571" lon="6.80384">
        <ele>1871.5</ele>
        <time>2011-03-27T06:50:03Z</time>
      </trkpt>
      <trkpt lat="45.64577" lon="6.80406">
        <ele>1874.3</ele>
        <time>2011-03-27T06:50:20Z</time>
      </trkpt>
      <trkpt lat="45.64582" lon="6.80416">
        <ele>1875.5</ele>
        <time>2011-03-27T06:50:29Z</time>
      </trkpt>
      <trkpt lat="45.64587" lon="6.80426">
        <ele>1877.6</ele>
        <time>2011-03-27T06:50:38Z</time>
      </trkpt>
      <trkpt lat="45.64589" lon="6.80438">
        <ele>1876.2</ele>
        <time>2011-03-27T06:50:45Z</time>
      </trkpt>
      <trkpt lat="45.64589" lon="6.80451">
        <ele>1876.3</ele>
        <time>2011-03-27T06:50:58Z</time>
      </trkpt>
      <trkpt lat="45.64593" lon="6.80462">
        <ele>1877.4</ele>
        <time>2011-03-27T06:51:13Z</time>
      </trkpt>
      <trkpt lat="45.64593" lon="6.80463">
        <ele>1877.4</ele>
        <time>2011-03-27T06:51:14Z</time>
      </trkpt>
      <trkpt lat="45.64601" lon="6.80484">
        <ele>1880.4</ele>
        <time>2011-03-27T06:51:29Z</time>
      </trkpt>
      <trkpt lat="45.64607" lon="6.80493">
        <ele>1879.8</ele>
        <time>2011-03-27T06:51:37Z</time>
      </trkpt>
      <trkpt lat="45.64613" lon="6.80503">
        <ele>1880.4</ele>
        <time>2011-03-27T06:51:46Z</time>
      </trkpt>
      <trkpt lat="45.64618" lon="6.80512">
        <ele>1882.1</ele>
        <time>2011-03-27T06:51:54Z</time>
      </trkpt>
      <trkpt lat="45.64624" lon="6.8052">
        <ele>1881.6</ele>
        <time>2011-03-27T06:52:02Z</time>
      </trkpt>
      <trkpt lat="45.64629" lon="6.80529">
        <ele>1881.9</ele>
        <time>2011-03-27T06:52:10Z</time>
      </trkpt>
      <trkpt lat="45.64634" lon="6.80539">
        <ele>1883.4</ele>
        <time>2011-03-27T06:52:18Z</time>
      </trkpt>
      <trkpt lat="45.64635" lon="6.8054">
        <ele>1883.4</ele>
        <time>2011-03-27T06:52:19Z</time>
      </trkpt>
      <trkpt lat="45.64644" lon="6.8056">
        <ele>1887</ele>
        <time>2011-03-27T06:52:36Z</time>
      </trkpt>
      <trkpt lat="45.64635" lon="6.80563">
        <ele>1889.3</ele>
        <time>2011-03-27T06:52:54Z</time>
      </trkpt>
      <trkpt lat="45.64633" lon="6.80574">
        <ele>1888.5</ele>
        <time>2011-03-27T06:53:07Z</time>
      </trkpt>
      <trkpt lat="45.6464" lon="6.80582">
        <ele>1891.4</ele>
        <time>2011-03-27T06:54:51Z</time>
      </trkpt>
      <trkpt lat="45.64641" lon="6.80582">
        <ele>1891.4</ele>
        <time>2011-03-27T06:54:52Z</time>
      </trkpt>
      <trkpt lat="45.64656" lon="6.80588">
        <ele>1891</ele>
        <time>2011-03-27T06:55:04Z</time>
      </trkpt>
      <trkpt lat="45.64663" lon="6.80593">
        <ele>1889.2</ele>
        <time>2011-03-27T06:55:11Z</time>
      </trkpt>
      <trkpt lat="45.64671" lon="6.80598">
        <ele>1891.1</ele>
        <time>2011-03-27T06:55:18Z</time>
      </trkpt>
      <trkpt lat="45.64677" lon="6.80604">
        <ele>1890</ele>
        <time>2011-03-27T06:55:23Z</time>
      </trkpt>
      <trkpt lat="45.64686" lon="6.80609">
        <ele>1890</ele>
        <time>2011-03-27T06:55:30Z</time>
      </trkpt>
      <trkpt lat="45.64693" lon="6.80616">
        <ele>1890.5</ele>
        <time>2011-03-27T06:55:38Z</time>
      </trkpt>
      <trkpt lat="45.64699" lon="6.80625">
        <ele>1891.3</ele>
        <time>2011-03-27T06:55:47Z</time>
      </trkpt>
      <trkpt lat="45.64705" lon="6.80633">
        <ele>1878.9</ele>
        <time>2011-03-27T06:55:56Z</time>
      </trkpt>
      <trkpt lat="45.64706" lon="6.80634">
        <ele>1878.9</ele>
        <time>2011-03-27T06:55:57Z</time>
      </trkpt>
      <trkpt lat="45.64717" lon="6.80651">
        <ele>1875.9</ele>
        <time>2011-03-27T06:56:13Z</time>
      </trkpt>
      <trkpt lat="45.64723" lon="6.8066">
        <ele>1875.8</ele>
        <time>2011-03-27T06:56:22Z</time>
      </trkpt>
      <trkpt lat="45.64729" lon="6.80669">
        <ele>1875.9</ele>
        <time>2011-03-27T06:56:31Z</time>
      </trkpt>
      <trkpt lat="45.64734" lon="6.80679">
        <ele>1877.4</ele>
        <time>2011-03-27T06:56:41Z</time>
      </trkpt>
      <trkpt lat="45.64741" lon="6.80685">
        <ele>1878.5</ele>
        <time>2011-03-27T06:56:51Z</time>
      </trkpt>
      <trkpt lat="45.64748" lon="6.80691">
        <ele>1877.2</ele>
        <time>2011-03-27T06:56:59Z</time>
      </trkpt>
      <trkpt lat="45.64749" lon="6.80692">
        <ele>1877.2</ele>
        <time>2011-03-27T06:57:00Z</time>
      </trkpt>
      <trkpt lat="45.64762" lon="6.80704">
        <ele>1881.8</ele>
        <time>2011-03-27T06:57:16Z</time>
      </trkpt>
      <trkpt lat="45.64769" lon="6.8071">
        <ele>1878.9</ele>
        <time>2011-03-27T06:57:24Z</time>
      </trkpt>
      <trkpt lat="45.64776" lon="6.80716">
        <ele>1881.5</ele>
        <time>2011-03-27T06:57:32Z</time>
      </trkpt>
      <trkpt lat="45.64784" lon="6.80719">
        <ele>1882.9</ele>
        <time>2011-03-27T06:57:40Z</time>
      </trkpt>
      <trkpt lat="45.64793" lon="6.80718">
        <ele>1885</ele>
        <time>2011-03-27T06:57:49Z</time>
      </trkpt>
      <trkpt lat="45.64801" lon="6.80718">
        <ele>1883.8</ele>
        <time>2011-03-27T06:57:57Z</time>
      </trkpt>
      <trkpt lat="45.64809" lon="6.80722">
        <ele>1882.1</ele>
        <time>2011-03-27T06:58:05Z</time>
      </trkpt>
      <trkpt lat="45.64809" lon="6.80723">
        <ele>1882.1</ele>
        <time>2011-03-27T06:58:06Z</time>
      </trkpt>
      <trkpt lat="45.64821" lon="6.80739">
        <ele>1886.7</ele>
        <time>2011-03-27T06:58:21Z</time>
      </trkpt>
      <trkpt lat="45.64826" lon="6.80747">
        <ele>1885.1</ele>
        <time>2011-03-27T06:58:27Z</time>
      </trkpt>
      <trkpt lat="45.64833" lon="6.80755">
        <ele>1883.1</ele>
        <time>2011-03-27T06:58:32Z</time>
      </trkpt>
      <trkpt lat="45.64839" lon="6.80765">
        <ele>1884.5</ele>
        <time>2011-03-27T06:58:39Z</time>
      </trkpt>
      <trkpt lat="45.64845" lon="6.80772">
        <ele>1886.7</ele>
        <time>2011-03-27T06:58:46Z</time>
      </trkpt>
      <trkpt lat="45.64851" lon="6.8078">
        <ele>1886.9</ele>
        <time>2011-03-27T06:58:53Z</time>
      </trkpt>
      <trkpt lat="45.64857" lon="6.80788">
        <ele>1885.4</ele>
        <time>2011-03-27T06:59:01Z</time>
      </trkpt>
      <trkpt lat="45.64864" lon="6.80795">
        <ele>1888.3</ele>
        <time>2011-03-27T06:59:09Z</time>
      </trkpt>
      <trkpt lat="45.64865" lon="6.80796">
        <ele>1888.3</ele>
        <time>2011-03-27T06:59:10Z</time>
      </trkpt>
      <trkpt lat="45.64878" lon="6.80808">
        <ele>1889.7</ele>
        <time>2011-03-27T06:59:27Z</time>
      </trkpt>
      <trkpt lat="45.64885" lon="6.80813">
        <ele>1888.6</ele>
        <time>2011-03-27T06:59:36Z</time>
      </trkpt>
      <trkpt lat="45.64893" lon="6.8082">
        <ele>1889.9</ele>
        <time>2011-03-27T06:59:46Z</time>
      </trkpt>
      <trkpt lat="45.64897" lon="6.80831">
        <ele>1893.9</ele>
        <time>2011-03-27T06:59:56Z</time>
      </trkpt>
      <trkpt lat="45.64898" lon="6.80842">
        <ele>1899.8</ele>
        <time>2011-03-27T07:00:06Z</time>
      </trkpt>
      <trkpt lat="45.64899" lon="6.80855">
        <ele>1900.5</ele>
        <time>2011-03-27T07:00:19Z</time>
      </trkpt>
      <trkpt lat="45.64899" lon="6.80856">
        <ele>1900.5</ele>
        <time>2011-03-27T07:00:20Z</time>
      </trkpt>
      <trkpt lat="45.64901" lon="6.80879">
        <ele>1905.2</ele>
        <time>2011-03-27T07:00:41Z</time>
      </trkpt>
      <trkpt lat="45.64907" lon="6.80887">
        <ele>1905.5</ele>
        <time>2011-03-27T07:00:52Z</time>
      </trkpt>
      <trkpt lat="45.64913" lon="6.80895">
        <ele>1905</ele>
        <time>2011-03-27T07:01:02Z</time>
      </trkpt>
      <trkpt lat="45.64919" lon="6.80903">
        <ele>1908.5</ele>
        <time>2011-03-27T07:01:12Z</time>
      </trkpt>
      <trkpt lat="45.64927" lon="6.80908">
        <ele>1907.6</ele>
        <time>2011-03-27T07:01:21Z</time>
      </trkpt>
      <trkpt lat="45.64927" lon="6.8091">
        <ele>1907.6</ele>
        <time>2011-03-27T07:01:22Z</time>
      </trkpt>
      <trkpt lat="45.64941" lon="6.80923">
        <ele>1910.7</ele>
        <time>2011-03-27T07:01:40Z</time>
      </trkpt>
      <trkpt lat="45.64947" lon="6.80932">
        <ele>1908.4</ele>
        <time>2011-03-27T07:01:49Z</time>
      </trkpt>
      <trkpt lat="45.64952" lon="6.80942">
        <ele>1910</ele>
        <time>2011-03-27T07:03:52Z</time>
      </trkpt>
      <trkpt lat="45.64952" lon="6.80943">
        <ele>1910</ele>
        <time>2011-03-27T07:03:53Z</time>
      </trkpt>
      <trkpt lat="45.64962" lon="6.80963">
        <ele>1910.9</ele>
        <time>2011-03-27T07:04:38Z</time>
      </trkpt>
      <trkpt lat="45.64968" lon="6.80973">
        <ele>1911.3</ele>
        <time>2011-03-27T07:04:47Z</time>
      </trkpt>
      <trkpt lat="45.64976" lon="6.80978">
        <ele>1911.8</ele>
        <time>2011-03-27T07:04:58Z</time>
      </trkpt>
      <trkpt lat="45.64976" lon="6.80978">
        <ele>1911.8</ele>
        <time>2011-03-27T07:04:59Z</time>
      </trkpt>
      <trkpt lat="45.64991" lon="6.8099">
        <ele>1918.7</ele>
        <time>2011-03-27T07:05:23Z</time>
      </trkpt>
      <trkpt lat="45.64996" lon="6.80999">
        <ele>1921.3</ele>
        <time>2011-03-27T07:05:35Z</time>
      </trkpt>
      <trkpt lat="45.65" lon="6.8101">
        <ele>1922.6</ele>
        <time>2011-03-27T07:05:47Z</time>
      </trkpt>
      <trkpt lat="45.65003" lon="6.81021">
        <ele>1921.7</ele>
        <time>2011-03-27T07:06:08Z</time>
      </trkpt>
      <trkpt lat="45.65004" lon="6.81022">
        <ele>1921.7</ele>
        <time>2011-03-27T07:06:09Z</time>
      </trkpt>
      <trkpt lat="45.65017" lon="6.81038">
        <ele>1927.2</ele>
        <time>2011-03-27T07:07:21Z</time>
      </trkpt>
      <trkpt lat="45.65018" lon="6.81038">
        <ele>1927.2</ele>
        <time>2011-03-27T07:07:22Z</time>
      </trkpt>
      <trkpt lat="45.65033" lon="6.81038">
        <ele>1929.4</ele>
        <time>2011-03-27T07:07:45Z</time>
      </trkpt>
      <trkpt lat="45.65042" lon="6.81037">
        <ele>1930.7</ele>
        <time>2011-03-27T07:07:57Z</time>
      </trkpt>
      <trkpt lat="45.65051" lon="6.81034">
        <ele>1934</ele>
        <time>2011-03-27T07:08:10Z</time>
      </trkpt>
      <trkpt lat="45.65058" lon="6.8104">
        <ele>1934.1</ele>
        <time>2011-03-27T07:08:38Z</time>
      </trkpt>
      <trkpt lat="45.65059" lon="6.8104">
        <ele>1934.1</ele>
        <time>2011-03-27T07:08:39Z</time>
      </trkpt>
      <trkpt lat="45.65073" lon="6.81049">
        <ele>1939.6</ele>
        <time>2011-03-27T07:09:06Z</time>
      </trkpt>
      <trkpt lat="45.65082" lon="6.81049">
        <ele>1939.6</ele>
        <time>2011-03-27T07:09:19Z</time>
      </trkpt>
      <trkpt lat="45.6509" lon="6.81046">
        <ele>1941.3</ele>
        <time>2011-03-27T07:09:29Z</time>
      </trkpt>
      <trkpt lat="45.65097" lon="6.8104">
        <ele>1943.6</ele>
        <time>2011-03-27T07:09:39Z</time>
      </trkpt>
      <trkpt lat="45.65098" lon="6.81039">
        <ele>1943.6</ele>
        <time>2011-03-27T07:09:40Z</time>
      </trkpt>
      <trkpt lat="45.65108" lon="6.81027">
        <ele>1950.5</ele>
        <time>2011-03-27T07:09:55Z</time>
      </trkpt>
      <trkpt lat="45.65116" lon="6.81024">
        <ele>1948.9</ele>
        <time>2011-03-27T07:10:10Z</time>
      </trkpt>
      <trkpt lat="45.65124" lon="6.81026">
        <ele>1951</ele>
        <time>2011-03-27T07:10:19Z</time>
      </trkpt>
      <trkpt lat="45.65132" lon="6.81032">
        <ele>1951.6</ele>
        <time>2011-03-27T07:10:33Z</time>
      </trkpt>
      <trkpt lat="45.65139" lon="6.81039">
        <ele>1953.5</ele>
        <time>2011-03-27T07:10:43Z</time>
      </trkpt>
      <trkpt lat="45.65139" lon="6.81041">
        <ele>1953.5</ele>
        <time>2011-03-27T07:10:44Z</time>
      </trkpt>
      <trkpt lat="45.65154" lon="6.81048">
        <ele>1959</ele>
        <time>2011-03-27T07:11:13Z</time>
      </trkpt>
      <trkpt lat="45.65161" lon="6.81056">
        <ele>1963.1</ele>
        <time>2011-03-27T07:11:29Z</time>
      </trkpt>
      <trkpt lat="45.65167" lon="6.81064">
        <ele>1961.2</ele>
        <time>2011-03-27T07:11:42Z</time>
      </trkpt>
      <trkpt lat="45.65172" lon="6.81072">
        <ele>1964</ele>
        <time>2011-03-27T07:11:52Z</time>
      </trkpt>
      <trkpt lat="45.65174" lon="6.81072">
        <ele>1964</ele>
        <time>2011-03-27T07:11:53Z</time>
      </trkpt>
      <trkpt lat="45.65184" lon="6.81057">
        <ele>1966.9</ele>
        <time>2011-03-27T07:12:12Z</time>
      </trkpt>
      <trkpt lat="45.65191" lon="6.81049">
        <ele>1970.8</ele>
        <time>2011-03-27T07:12:27Z</time>
      </trkpt>
      <trkpt lat="45.65196" lon="6.81059">
        <ele>1971.3</ele>
        <time>2011-03-27T07:12:43Z</time>
      </trkpt>
      <trkpt lat="45.65201" lon="6.81069">
        <ele>1973.5</ele>
        <time>2011-03-27T07:12:54Z</time>
      </trkpt>
      <trkpt lat="45.65202" lon="6.8107">
        <ele>1973.5</ele>
        <time>2011-03-27T07:12:55Z</time>
      </trkpt>
      <trkpt lat="45.6521" lon="6.8109">
        <ele>1976.2</ele>
        <time>2011-03-27T07:13:17Z</time>
      </trkpt>
      <trkpt lat="45.65214" lon="6.81101">
        <ele>1975</ele>
        <time>2011-03-27T07:13:30Z</time>
      </trkpt>
      <trkpt lat="45.65213" lon="6.81114">
        <ele>1979.3</ele>
        <time>2011-03-27T07:13:41Z</time>
      </trkpt>
      <trkpt lat="45.65212" lon="6.81126">
        <ele>1980.8</ele>
        <time>2011-03-27T07:13:55Z</time>
      </trkpt>
      <trkpt lat="45.65212" lon="6.81126">
        <ele>1980.8</ele>
        <time>2011-03-27T07:13:56Z</time>
      </trkpt>
      <trkpt lat="45.65223" lon="6.81137">
        <ele>1980.3</ele>
        <time>2011-03-27T07:14:26Z</time>
      </trkpt>
      <trkpt lat="45.6523" lon="6.81131">
        <ele>1984</ele>
        <time>2011-03-27T07:14:36Z</time>
      </trkpt>
      <trkpt lat="45.65236" lon="6.81122">
        <ele>1983.4</ele>
        <time>2011-03-27T07:14:47Z</time>
      </trkpt>
      <trkpt lat="45.65243" lon="6.81128">
        <ele>1988</ele>
        <time>2011-03-27T07:15:07Z</time>
      </trkpt>
      <trkpt lat="45.65244" lon="6.81129">
        <ele>1988</ele>
        <time>2011-03-27T07:15:08Z</time>
      </trkpt>
      <trkpt lat="45.65255" lon="6.81143">
        <ele>1991.1</ele>
        <time>2011-03-27T07:15:43Z</time>
      </trkpt>
      <trkpt lat="45.65264" lon="6.81143">
        <ele>1993.5</ele>
        <time>2011-03-27T07:15:56Z</time>
      </trkpt>
      <trkpt lat="45.65271" lon="6.8115">
        <ele>1996.4</ele>
        <time>2011-03-27T07:16:15Z</time>
      </trkpt>
      <trkpt lat="45.65271" lon="6.81151">
        <ele>1996.4</ele>
        <time>2011-03-27T07:16:16Z</time>
      </trkpt>
      <trkpt lat="45.65287" lon="6.8116">
        <ele>2000.9</ele>
        <time>2011-03-27T07:16:44Z</time>
      </trkpt>
      <trkpt lat="45.65296" lon="6.81158">
        <ele>1999.9</ele>
        <time>2011-03-27T07:16:57Z</time>
      </trkpt>
      <trkpt lat="45.65304" lon="6.81156">
        <ele>2004.9</ele>
        <time>2011-03-27T07:17:14Z</time>
      </trkpt>
      <trkpt lat="45.65311" lon="6.81164">
        <ele>2006.6</ele>
        <time>2011-03-27T07:17:32Z</time>
      </trkpt>
      <trkpt lat="45.65312" lon="6.81164">
        <ele>2006.6</ele>
        <time>2011-03-27T07:17:33Z</time>
      </trkpt>
      <trkpt lat="45.65318" lon="6.81172">
        <ele>2013.9</ele>
        <time>2011-03-27T07:18:02Z</time>
      </trkpt>
      <trkpt lat="45.65326" lon="6.81178">
        <ele>2016.7</ele>
        <time>2011-03-27T07:18:18Z</time>
      </trkpt>
      <trkpt lat="45.65332" lon="6.81187">
        <ele>2019.3</ele>
        <time>2011-03-27T07:18:39Z</time>
      </trkpt>
      <trkpt lat="45.65332" lon="6.81188">
        <ele>2019.3</ele>
        <time>2011-03-27T07:18:40Z</time>
      </trkpt>
      <trkpt lat="45.65347" lon="6.81199">
        <ele>2025</ele>
        <time>2011-03-27T07:19:25Z</time>
      </trkpt>
      <trkpt lat="45.65345" lon="6.81211">
        <ele>2027.1</ele>
        <time>2011-03-27T07:19:39Z</time>
      </trkpt>
      <trkpt lat="45.65351" lon="6.81218">
        <ele>2031.3</ele>
        <time>2011-03-27T07:19:59Z</time>
      </trkpt>
      <trkpt lat="45.65353" lon="6.81218">
        <ele>2031.3</ele>
        <time>2011-03-27T07:20:00Z</time>
      </trkpt>
      <trkpt lat="45.65368" lon="6.81214">
        <ele>2036.9</ele>
        <time>2011-03-27T07:20:30Z</time>
      </trkpt>
      <trkpt lat="45.65377" lon="6.81218">
        <ele>2038.9</ele>
        <time>2011-03-27T07:20:53Z</time>
      </trkpt>
      <trkpt lat="45.65385" lon="6.81222">
        <ele>2043.9</ele>
        <time>2011-03-27T07:21:14Z</time>
      </trkpt>
      <trkpt lat="45.65386" lon="6.81222">
        <ele>2043.9</ele>
        <time>2011-03-27T07:21:15Z</time>
      </trkpt>
      <trkpt lat="45.65402" lon="6.81222">
        <ele>2047.3</ele>
        <time>2011-03-27T07:21:52Z</time>
      </trkpt>
      <trkpt lat="45.65409" lon="6.8123">
        <ele>2051.6</ele>
        <time>2011-03-27T07:22:10Z</time>
      </trkpt>
      <trkpt lat="45.65411" lon="6.81242">
        <ele>2055.8</ele>
        <time>2011-03-27T07:22:23Z</time>
      </trkpt>
      <trkpt lat="45.65412" lon="6.81242">
        <ele>2055.8</ele>
        <time>2011-03-27T07:22:24Z</time>
      </trkpt>
      <trkpt lat="45.65423" lon="6.8126">
        <ele>2056.6</ele>
        <time>2011-03-27T07:22:52Z</time>
      </trkpt>
      <trkpt lat="45.65425" lon="6.81272">
        <ele>2059</ele>
        <time>2011-03-27T07:23:09Z</time>
      </trkpt>
      <trkpt lat="45.65429" lon="6.81284">
        <ele>2063.9</ele>
        <time>2011-03-27T07:23:24Z</time>
      </trkpt>
      <trkpt lat="45.65436" lon="6.81291">
        <ele>2064.5</ele>
        <time>2011-03-27T07:23:41Z</time>
      </trkpt>
      <trkpt lat="45.65436" lon="6.81292">
        <ele>2064.5</ele>
        <time>2011-03-27T07:23:42Z</time>
      </trkpt>
      <trkpt lat="45.65448" lon="6.81309">
        <ele>2069.1</ele>
        <time>2011-03-27T07:24:12Z</time>
      </trkpt>
      <trkpt lat="45.65449" lon="6.81321">
        <ele>2070.9</ele>
        <time>2011-03-27T07:24:23Z</time>
      </trkpt>
      <trkpt lat="45.65449" lon="6.81333">
        <ele>2073.3</ele>
        <time>2011-03-27T07:24:37Z</time>
      </trkpt>
      <trkpt lat="45.65452" lon="6.81345">
        <ele>2077.3</ele>
        <time>2011-03-27T07:24:51Z</time>
      </trkpt>
      <trkpt lat="45.65453" lon="6.81345">
        <ele>2077.3</ele>
        <time>2011-03-27T07:24:52Z</time>
      </trkpt>
      <trkpt lat="45.65466" lon="6.81359">
        <ele>2081.4</ele>
        <time>2011-03-27T07:25:54Z</time>
      </trkpt>
      <trkpt lat="45.65467" lon="6.81359">
        <ele>2081.4</ele>
        <time>2011-03-27T07:25:55Z</time>
      </trkpt>
      <trkpt lat="45.65483" lon="6.81361">
        <ele>2084.9</ele>
        <time>2011-03-27T07:28:38Z</time>
      </trkpt>
      <trkpt lat="45.65483" lon="6.81362">
        <ele>2084.9</ele>
        <time>2011-03-27T07:28:39Z</time>
      </trkpt>
      <trkpt lat="45.65494" lon="6.81377">
        <ele>2093.6</ele>
        <time>2011-03-27T07:29:14Z</time>
      </trkpt>
      <trkpt lat="45.65498" lon="6.81389">
        <ele>2097.4</ele>
        <time>2011-03-27T07:29:38Z</time>
      </trkpt>
      <trkpt lat="45.65505" lon="6.81396">
        <ele>2099.9</ele>
        <time>2011-03-27T07:29:59Z</time>
      </trkpt>
      <trkpt lat="45.65506" lon="6.81396">
        <ele>2099.9</ele>
        <time>2011-03-27T07:30:00Z</time>
      </trkpt>
      <trkpt lat="45.65522" lon="6.81401">
        <ele>2110.2</ele>
        <time>2011-03-27T07:30:51Z</time>
      </trkpt>
      <trkpt lat="45.65526" lon="6.81412">
        <ele>2109.1</ele>
        <time>2011-03-27T07:31:04Z</time>
      </trkpt>
      <trkpt lat="45.65527" lon="6.81412">
        <ele>2109.1</ele>
        <time>2011-03-27T07:31:05Z</time>
      </trkpt>
      <trkpt lat="45.65538" lon="6.81428">
        <ele>2120.8</ele>
        <time>2011-03-27T07:31:29Z</time>
      </trkpt>
      <trkpt lat="45.65545" lon="6.81434">
        <ele>2120</ele>
        <time>2011-03-27T07:31:43Z</time>
      </trkpt>
      <trkpt lat="45.65553" lon="6.81428">
        <ele>2119.3</ele>
        <time>2011-03-27T07:31:57Z</time>
      </trkpt>
      <trkpt lat="45.65559" lon="6.8142">
        <ele>2122.4</ele>
        <time>2011-03-27T07:32:15Z</time>
      </trkpt>
      <trkpt lat="45.6556" lon="6.8142">
        <ele>2122.4</ele>
        <time>2011-03-27T07:32:16Z</time>
      </trkpt>
      <trkpt lat="45.65571" lon="6.81437">
        <ele>2131.2</ele>
        <time>2011-03-27T07:32:47Z</time>
      </trkpt>
      <trkpt lat="45.65575" lon="6.81447">
        <ele>2133.6</ele>
        <time>2011-03-27T07:33:02Z</time>
      </trkpt>
      <trkpt lat="45.65576" lon="6.8146">
        <ele>2131.8</ele>
        <time>2011-03-27T07:33:15Z</time>
      </trkpt>
      <trkpt lat="45.65585" lon="6.81464">
        <ele>2137</ele>
        <time>2011-03-27T07:33:39Z</time>
      </trkpt>
      <trkpt lat="45.65585" lon="6.81463">
        <ele>2137</ele>
        <time>2011-03-27T07:33:40Z</time>
      </trkpt>
      <trkpt lat="45.656" lon="6.81473">
        <ele>2138.9</ele>
        <time>2011-03-27T07:34:17Z</time>
      </trkpt>
      <trkpt lat="45.65608" lon="6.8148">
        <ele>2145.8</ele>
        <time>2011-03-27T07:34:32Z</time>
      </trkpt>
      <trkpt lat="45.65611" lon="6.81491">
        <ele>2149.5</ele>
        <time>2011-03-27T07:35:01Z</time>
      </trkpt>
      <trkpt lat="45.65612" lon="6.81493">
        <ele>2149.5</ele>
        <time>2011-03-27T07:35:02Z</time>
      </trkpt>
      <trkpt lat="45.65625" lon="6.81495">
        <ele>2155.7</ele>
        <time>2011-03-27T07:35:40Z</time>
      </trkpt>
      <trkpt lat="45.65632" lon="6.81503">
        <ele>2157.9</ele>
        <time>2011-03-27T07:36:09Z</time>
      </trkpt>
      <trkpt lat="45.65632" lon="6.81504">
        <ele>2157.9</ele>
        <time>2011-03-27T07:36:10Z</time>
      </trkpt>
      <trkpt lat="45.65649" lon="6.81505">
        <ele>2167.1</ele>
        <time>2011-03-27T07:36:51Z</time>
      </trkpt>
      <trkpt lat="45.65657" lon="6.81511">
        <ele>2170.8</ele>
        <time>2011-03-27T07:37:09Z</time>
      </trkpt>
      <trkpt lat="45.65664" lon="6.81519">
        <ele>2175.9</ele>
        <time>2011-03-27T07:37:26Z</time>
      </trkpt>
      <trkpt lat="45.65664" lon="6.8152">
        <ele>2175.9</ele>
        <time>2011-03-27T07:37:27Z</time>
      </trkpt>
      <trkpt lat="45.6568" lon="6.81522">
        <ele>2181.8</ele>
        <time>2011-03-27T07:38:00Z</time>
      </trkpt>
      <trkpt lat="45.65689" lon="6.81522">
        <ele>2182.7</ele>
        <time>2011-03-27T07:38:16Z</time>
      </trkpt>
      <trkpt lat="45.65695" lon="6.81533">
        <ele>2185.5</ele>
        <time>2011-03-27T07:38:33Z</time>
      </trkpt>
      <trkpt lat="45.65695" lon="6.81532">
        <ele>2185.5</ele>
        <time>2011-03-27T07:38:34Z</time>
      </trkpt>
      <trkpt lat="45.65708" lon="6.81534">
        <ele>2195.5</ele>
        <time>2011-03-27T07:39:15Z</time>
      </trkpt>
      <trkpt lat="45.6571" lon="6.81546">
        <ele>2197.4</ele>
        <time>2011-03-27T07:39:28Z</time>
      </trkpt>
      <trkpt lat="45.65716" lon="6.81553">
        <ele>2198.5</ele>
        <time>2011-03-27T07:39:42Z</time>
      </trkpt>
      <trkpt lat="45.65717" lon="6.81553">
        <ele>2198.5</ele>
        <time>2011-03-27T07:39:43Z</time>
      </trkpt>
      <trkpt lat="45.65733" lon="6.8155">
        <ele>2204.9</ele>
        <time>2011-03-27T07:40:16Z</time>
      </trkpt>
      <trkpt lat="45.65741" lon="6.81544">
        <ele>2209.7</ele>
        <time>2011-03-27T07:40:43Z</time>
      </trkpt>
      <trkpt lat="45.65741" lon="6.81543">
        <ele>2209.7</ele>
        <time>2011-03-27T07:40:44Z</time>
      </trkpt>
      <trkpt lat="45.65756" lon="6.81548">
        <ele>2214.6</ele>
        <time>2011-03-27T07:41:23Z</time>
      </trkpt>
      <trkpt lat="45.65762" lon="6.81557">
        <ele>2216.7</ele>
        <time>2011-03-27T07:41:42Z</time>
      </trkpt>
      <trkpt lat="45.6577" lon="6.81563">
        <ele>2221.3</ele>
        <time>2011-03-27T07:42:00Z</time>
      </trkpt>
      <trkpt lat="45.6577" lon="6.81563">
        <ele>2221.3</ele>
        <time>2011-03-27T07:42:01Z</time>
      </trkpt>
      <trkpt lat="45.65778" lon="6.81584">
        <ele>2225.9</ele>
        <time>2011-03-27T07:42:34Z</time>
      </trkpt>
      <trkpt lat="45.65786" lon="6.81586">
        <ele>2229</ele>
        <time>2011-03-27T07:42:52Z</time>
      </trkpt>
      <trkpt lat="45.65789" lon="6.81598">
        <ele>2233.7</ele>
        <time>2011-03-27T07:43:11Z</time>
      </trkpt>
      <trkpt lat="45.65789" lon="6.81599">
        <ele>2233.7</ele>
        <time>2011-03-27T07:43:12Z</time>
      </trkpt>
      <trkpt lat="45.658" lon="6.81613">
        <ele>2240</ele>
        <time>2011-03-27T07:43:52Z</time>
      </trkpt>
      <trkpt lat="45.65808" lon="6.81613">
        <ele>2243</ele>
        <time>2011-03-27T07:44:06Z</time>
      </trkpt>
      <trkpt lat="45.65814" lon="6.81622">
        <ele>2246.9</ele>
        <time>2011-03-27T07:44:24Z</time>
      </trkpt>
      <trkpt lat="45.65814" lon="6.81623">
        <ele>2246.9</ele>
        <time>2011-03-27T07:44:25Z</time>
      </trkpt>
      <trkpt lat="45.65828" lon="6.81637">
        <ele>2255.5</ele>
        <time>2011-03-27T07:46:11Z</time>
      </trkpt>
      <trkpt lat="45.65829" lon="6.81637">
        <ele>2255.5</ele>
        <time>2011-03-27T07:46:12Z</time>
      </trkpt>
      <trkpt lat="45.6584" lon="6.81648">
        <ele>2259.5</ele>
        <time>2011-03-27T07:49:07Z</time>
      </trkpt>
      <trkpt lat="45.6584" lon="6.81648">
        <ele>2259.5</ele>
        <time>2011-03-27T07:49:08Z</time>
      </trkpt>
      <trkpt lat="45.65852" lon="6.81667">
        <ele>2265.4</ele>
        <time>2011-03-27T07:49:50Z</time>
      </trkpt>
      <trkpt lat="45.6586" lon="6.81671">
        <ele>2269.8</ele>
        <time>2011-03-27T07:50:06Z</time>
      </trkpt>
      <trkpt lat="45.65868" lon="6.81674">
        <ele>2272.1</ele>
        <time>2011-03-27T07:50:23Z</time>
      </trkpt>
      <trkpt lat="45.65869" lon="6.81674">
        <ele>2272.1</ele>
        <time>2011-03-27T07:50:24Z</time>
      </trkpt>
      <trkpt lat="45.65877" lon="6.81692">
        <ele>2280.5</ele>
        <time>2011-03-27T07:50:52Z</time>
      </trkpt>
      <trkpt lat="45.65883" lon="6.81702">
        <ele>2282.4</ele>
        <time>2011-03-27T07:51:15Z</time>
      </trkpt>
      <trkpt lat="45.65891" lon="6.81701">
        <ele>2284.2</ele>
        <time>2011-03-27T07:51:32Z</time>
      </trkpt>
      <trkpt lat="45.65892" lon="6.81702">
        <ele>2284.2</ele>
        <time>2011-03-27T07:51:33Z</time>
      </trkpt>
      <trkpt lat="45.65901" lon="6.81721">
        <ele>2289.1</ele>
        <time>2011-03-27T07:52:00Z</time>
      </trkpt>
      <trkpt lat="45.65908" lon="6.81728">
        <ele>2295.3</ele>
        <time>2011-03-27T07:52:21Z</time>
      </trkpt>
      <trkpt lat="45.65916" lon="6.81731">
        <ele>2297.1</ele>
        <time>2011-03-27T07:52:35Z</time>
      </trkpt>
      <trkpt lat="45.65917" lon="6.81732">
        <ele>2297.1</ele>
        <time>2011-03-27T07:52:36Z</time>
      </trkpt>
      <trkpt lat="45.6592" lon="6.81755">
        <ele>2303.2</ele>
        <time>2011-03-27T07:53:09Z</time>
      </trkpt>
      <trkpt lat="45.65915" lon="6.81765">
        <ele>2304</ele>
        <time>2011-03-27T07:53:26Z</time>
      </trkpt>
      <trkpt lat="45.65911" lon="6.81776">
        <ele>2306.5</ele>
        <time>2011-03-27T07:53:42Z</time>
      </trkpt>
      <trkpt lat="45.65911" lon="6.81776">
        <ele>2306.5</ele>
        <time>2011-03-27T07:53:43Z</time>
      </trkpt>
      <trkpt lat="45.6591" lon="6.818">
        <ele>2313.3</ele>
        <time>2011-03-27T07:54:13Z</time>
      </trkpt>
      <trkpt lat="45.65918" lon="6.81805">
        <ele>2318</ele>
        <time>2011-03-27T07:54:36Z</time>
      </trkpt>
      <trkpt lat="45.65926" lon="6.81809">
        <ele>2320.9</ele>
        <time>2011-03-27T07:54:55Z</time>
      </trkpt>
      <trkpt lat="45.65926" lon="6.8181">
        <ele>2320.9</ele>
        <time>2011-03-27T07:54:56Z</time>
      </trkpt>
      <trkpt lat="45.65935" lon="6.81831">
        <ele>2328.1</ele>
        <time>2011-03-27T07:55:46Z</time>
      </trkpt>
      <trkpt lat="45.6593" lon="6.8184">
        <ele>2333.4</ele>
        <time>2011-03-27T07:56:09Z</time>
      </trkpt>
      <trkpt lat="45.65929" lon="6.81841">
        <ele>2333.4</ele>
        <time>2011-03-27T07:56:10Z</time>
      </trkpt>
      <trkpt lat="45.65918" lon="6.8186">
        <ele>2338.9</ele>
        <time>2011-03-27T07:56:44Z</time>
      </trkpt>
      <trkpt lat="45.65912" lon="6.81868">
        <ele>2341.5</ele>
        <time>2011-03-27T07:57:31Z</time>
      </trkpt>
      <trkpt lat="45.65912" lon="6.81868">
        <ele>2341.5</ele>
        <time>2011-03-27T07:57:32Z</time>
      </trkpt>
      <trkpt lat="45.6592" lon="6.81874">
        <ele>2343.7</ele>
        <time>2011-03-27T07:58:43Z</time>
      </trkpt>
      <trkpt lat="45.65936" lon="6.8188">
        <ele>2351.2</ele>
        <time>2011-03-27T07:59:18Z</time>
      </trkpt>
      <trkpt lat="45.65944" lon="6.81884">
        <ele>2353.9</ele>
        <time>2011-03-27T07:59:39Z</time>
      </trkpt>
      <trkpt lat="45.65953" lon="6.81886">
        <ele>2355.8</ele>
        <time>2011-03-27T07:59:58Z</time>
      </trkpt>
      <trkpt lat="45.65954" lon="6.81887">
        <ele>2355.8</ele>
        <time>2011-03-27T07:59:59Z</time>
      </trkpt>
      <trkpt lat="45.65969" lon="6.81897">
        <ele>2360.7</ele>
        <time>2011-03-27T08:00:32Z</time>
      </trkpt>
      <trkpt lat="45.65977" lon="6.819">
        <ele>2362.9</ele>
        <time>2011-03-27T08:00:46Z</time>
      </trkpt>
      <trkpt lat="45.65985" lon="6.81897">
        <ele>2365.2</ele>
        <time>2011-03-27T08:01:01Z</time>
      </trkpt>
      <trkpt lat="45.65986" lon="6.81897">
        <ele>2365.2</ele>
        <time>2011-03-27T08:01:02Z</time>
      </trkpt>
      <trkpt lat="45.66001" lon="6.81888">
        <ele>2370</ele>
        <time>2011-03-27T08:01:28Z</time>
      </trkpt>
      <trkpt lat="45.66008" lon="6.81881">
        <ele>2372.2</ele>
        <time>2011-03-27T08:01:46Z</time>
      </trkpt>
      <trkpt lat="45.66016" lon="6.81877">
        <ele>2374.2</ele>
        <time>2011-03-27T08:02:01Z</time>
      </trkpt>
      <trkpt lat="45.66025" lon="6.81876">
        <ele>2378.4</ele>
        <time>2011-03-27T08:02:18Z</time>
      </trkpt>
      <trkpt lat="45.66026" lon="6.81876">
        <ele>2378.4</ele>
        <time>2011-03-27T08:02:19Z</time>
      </trkpt>
      <trkpt lat="45.66041" lon="6.81869">
        <ele>2383.4</ele>
        <time>2011-03-27T08:03:26Z</time>
      </trkpt>
      <trkpt lat="45.66041" lon="6.81869">
        <ele>2383.4</ele>
        <time>2011-03-27T08:03:27Z</time>
      </trkpt>
      <trkpt lat="45.66033" lon="6.8189">
        <ele>2386.6</ele>
        <time>2011-03-27T08:04:16Z</time>
      </trkpt>
      <trkpt lat="45.66029" lon="6.81901">
        <ele>2392.3</ele>
        <time>2011-03-27T08:05:06Z</time>
      </trkpt>
      <trkpt lat="45.66029" lon="6.81902">
        <ele>2392.3</ele>
        <time>2011-03-27T08:05:07Z</time>
      </trkpt>
      <trkpt lat="45.66045" lon="6.81906">
        <ele>2397.3</ele>
        <time>2011-03-27T08:05:46Z</time>
      </trkpt>
      <trkpt lat="45.66053" lon="6.81904">
        <ele>2397.8</ele>
        <time>2011-03-27T08:06:30Z</time>
      </trkpt>
      <trkpt lat="45.66054" lon="6.81904">
        <ele>2397.8</ele>
        <time>2011-03-27T08:06:31Z</time>
      </trkpt>
      <trkpt lat="45.66069" lon="6.81895">
        <ele>2402.6</ele>
        <time>2011-03-27T08:07:00Z</time>
      </trkpt>
      <trkpt lat="45.66077" lon="6.81892">
        <ele>2406.2</ele>
        <time>2011-03-27T08:07:15Z</time>
      </trkpt>
      <trkpt lat="45.66084" lon="6.81885">
        <ele>2406.6</ele>
        <time>2011-03-27T08:07:27Z</time>
      </trkpt>
      <trkpt lat="45.66089" lon="6.81874">
        <ele>2409</ele>
        <time>2011-03-27T08:07:42Z</time>
      </trkpt>
      <trkpt lat="45.66089" lon="6.81872">
        <ele>2409</ele>
        <time>2011-03-27T08:07:43Z</time>
      </trkpt>
      <trkpt lat="45.66088" lon="6.8186">
        <ele>2411.6</ele>
        <time>2011-03-27T08:08:52Z</time>
      </trkpt>
      <trkpt lat="45.66089" lon="6.81837">
        <ele>2411.5</ele>
        <time>2011-03-27T08:09:24Z</time>
      </trkpt>
      <trkpt lat="45.66084" lon="6.81846">
        <ele>2404.9</ele>
        <time>2011-03-27T08:10:07Z</time>
      </trkpt>
      <trkpt lat="45.66084" lon="6.81848">
        <ele>2404.9</ele>
        <time>2011-03-27T08:10:08Z</time>
      </trkpt>
      <trkpt lat="45.66086" lon="6.81871">
        <ele>2412.6</ele>
        <time>2011-03-27T08:10:28Z</time>
      </trkpt>
      <trkpt lat="45.66084" lon="6.81884">
        <ele>2413.9</ele>
        <time>2011-03-27T08:10:40Z</time>
      </trkpt>
      <trkpt lat="45.66083" lon="6.81895">
        <ele>2415.5</ele>
        <time>2011-03-27T08:10:53Z</time>
      </trkpt>
      <trkpt lat="45.66083" lon="6.81908">
        <ele>2417</ele>
        <time>2011-03-27T08:11:06Z</time>
      </trkpt>
      <trkpt lat="45.66089" lon="6.81915">
        <ele>2420.6</ele>
        <time>2011-03-27T08:11:30Z</time>
      </trkpt>
      <trkpt lat="45.66091" lon="6.81915">
        <ele>2420.6</ele>
        <time>2011-03-27T08:11:31Z</time>
      </trkpt>
      <trkpt lat="45.66104" lon="6.81903">
        <ele>2423.5</ele>
        <time>2011-03-27T08:11:58Z</time>
      </trkpt>
      <trkpt lat="45.66109" lon="6.81912">
        <ele>2428.8</ele>
        <time>2011-03-27T08:12:29Z</time>
      </trkpt>
      <trkpt lat="45.66114" lon="6.81923">
        <ele>2432.4</ele>
        <time>2011-03-27T08:12:49Z</time>
      </trkpt>
      <trkpt lat="45.66115" lon="6.81923">
        <ele>2432.4</ele>
        <time>2011-03-27T08:12:50Z</time>
      </trkpt>
      <trkpt lat="45.66117" lon="6.81944">
        <ele>2434.4</ele>
        <time>2011-03-27T08:15:21Z</time>
      </trkpt>
      <trkpt lat="45.66116" lon="6.81945">
        <ele>2434.4</ele>
        <time>2011-03-27T08:15:22Z</time>
      </trkpt>
      <trkpt lat="45.66113" lon="6.81956">
        <ele>2435.5</ele>
        <time>2011-03-27T08:16:26Z</time>
      </trkpt>
      <trkpt lat="45.66101" lon="6.81973">
        <ele>2439.5</ele>
        <time>2011-03-27T08:17:57Z</time>
      </trkpt>
      <trkpt lat="45.661" lon="6.81973">
        <ele>2439.5</ele>
        <time>2011-03-27T08:17:58Z</time>
      </trkpt>
      <trkpt lat="45.66113" lon="6.81956">
        <ele>2436.4</ele>
        <time>2011-03-27T08:21:48Z</time>
      </trkpt>
      <trkpt lat="45.66114" lon="6.81955">
        <ele>2436.4</ele>
        <time>2011-03-27T08:21:49Z</time>
      </trkpt>
      <trkpt lat="45.66123" lon="6.81958">
        <ele>2435.1</ele>
        <time>2011-03-27T08:22:07Z</time>
      </trkpt>
      <trkpt lat="45.66123" lon="6.8197">
        <ele>2433.2</ele>
        <time>2011-03-27T08:22:13Z</time>
      </trkpt>
      <trkpt lat="45.66124" lon="6.81983">
        <ele>2432.3</ele>
        <time>2011-03-27T08:22:20Z</time>
      </trkpt>
      <trkpt lat="45.66127" lon="6.81994">
        <ele>2433.4</ele>
        <time>2011-03-27T08:22:34Z</time>
      </trkpt>
      <trkpt lat="45.66133" lon="6.82004">
        <ele>2435.4</ele>
        <time>2011-03-27T08:22:48Z</time>
      </trkpt>
      <trkpt lat="45.6614" lon="6.82011">
        <ele>2436.6</ele>
        <time>2011-03-27T08:23:03Z</time>
      </trkpt>
      <trkpt lat="45.6614" lon="6.82011">
        <ele>2436.6</ele>
        <time>2011-03-27T08:23:04Z</time>
      </trkpt>
      <trkpt lat="45.6615" lon="6.82026">
        <ele>2438.8</ele>
        <time>2011-03-27T08:24:08Z</time>
      </trkpt>
      <trkpt lat="45.6615" lon="6.82026">
        <ele>2438.8</ele>
        <time>2011-03-27T08:24:09Z</time>
      </trkpt>
      <trkpt lat="45.66166" lon="6.82027">
        <ele>2444.1</ele>
        <time>2011-03-27T08:24:57Z</time>
      </trkpt>
      <trkpt lat="45.66169" lon="6.82015">
        <ele>2448.1</ele>
        <time>2011-03-27T08:25:16Z</time>
      </trkpt>
      <trkpt lat="45.6617" lon="6.82015">
        <ele>2448.1</ele>
        <time>2011-03-27T08:25:17Z</time>
      </trkpt>
      <trkpt lat="45.66172" lon="6.81991">
        <ele>2450.9</ele>
        <time>2011-03-27T08:25:44Z</time>
      </trkpt>
      <trkpt lat="45.6617" lon="6.81979">
        <ele>2456.1</ele>
        <time>2011-03-27T08:26:03Z</time>
      </trkpt>
      <trkpt lat="45.66177" lon="6.81987">
        <ele>2456.5</ele>
        <time>2011-03-27T08:26:30Z</time>
      </trkpt>
      <trkpt lat="45.66177" lon="6.81989">
        <ele>2456.5</ele>
        <time>2011-03-27T08:26:31Z</time>
      </trkpt>
      <trkpt lat="45.66182" lon="6.8201">
        <ele>2458.4</ele>
        <time>2011-03-27T08:26:57Z</time>
      </trkpt>
      <trkpt lat="45.66187" lon="6.8202">
        <ele>2463.7</ele>
        <time>2011-03-27T08:27:14Z</time>
      </trkpt>
      <trkpt lat="45.66192" lon="6.82031">
        <ele>2463.6</ele>
        <time>2011-03-27T08:27:32Z</time>
      </trkpt>
      <trkpt lat="45.66192" lon="6.82031">
        <ele>2463.6</ele>
        <time>2011-03-27T08:27:33Z</time>
      </trkpt>
      <trkpt lat="45.66199" lon="6.82053">
        <ele>2468.6</ele>
        <time>2011-03-27T08:28:15Z</time>
      </trkpt>
      <trkpt lat="45.66204" lon="6.82064">
        <ele>2472.1</ele>
        <time>2011-03-27T08:28:48Z</time>
      </trkpt>
      <trkpt lat="45.66205" lon="6.82064">
        <ele>2472.1</ele>
        <time>2011-03-27T08:28:49Z</time>
      </trkpt>
      <trkpt lat="45.66198" lon="6.82087">
        <ele>2477</ele>
        <time>2011-03-27T08:29:19Z</time>
      </trkpt>
      <trkpt lat="45.66199" lon="6.821">
        <ele>2478.6</ele>
        <time>2011-03-27T08:30:06Z</time>
      </trkpt>
      <trkpt lat="45.66199" lon="6.82101">
        <ele>2478.6</ele>
        <time>2011-03-27T08:30:07Z</time>
      </trkpt>
      <trkpt lat="45.66197" lon="6.82124">
        <ele>2480.9</ele>
        <time>2011-03-27T08:30:40Z</time>
      </trkpt>
      <trkpt lat="45.66197" lon="6.82137">
        <ele>2483.2</ele>
        <time>2011-03-27T08:30:55Z</time>
      </trkpt>
      <trkpt lat="45.66201" lon="6.82148">
        <ele>2486.6</ele>
        <time>2011-03-27T08:31:11Z</time>
      </trkpt>
      <trkpt lat="45.66201" lon="6.82149">
        <ele>2486.6</ele>
        <time>2011-03-27T08:31:12Z</time>
      </trkpt>
      <trkpt lat="45.66215" lon="6.82133">
        <ele>2489.6</ele>
        <time>2011-03-27T08:31:48Z</time>
      </trkpt>
      <trkpt lat="45.66215" lon="6.82145">
        <ele>2494.2</ele>
        <time>2011-03-27T08:32:08Z</time>
      </trkpt>
      <trkpt lat="45.66219" lon="6.82156">
        <ele>2494.6</ele>
        <time>2011-03-27T08:32:23Z</time>
      </trkpt>
      <trkpt lat="45.66219" lon="6.82158">
        <ele>2494.6</ele>
        <time>2011-03-27T08:32:24Z</time>
      </trkpt>
      <trkpt lat="45.66213" lon="6.8218">
        <ele>2497.6</ele>
        <time>2011-03-27T08:33:08Z</time>
      </trkpt>
      <trkpt lat="45.66212" lon="6.82191">
        <ele>2500.1</ele>
        <time>2011-03-27T08:34:14Z</time>
      </trkpt>
      <trkpt lat="45.66212" lon="6.82193">
        <ele>2500.1</ele>
        <time>2011-03-27T08:34:15Z</time>
      </trkpt>
      <trkpt lat="45.66221" lon="6.82197">
        <ele>2498.8</ele>
        <time>2011-03-27T08:37:24Z</time>
      </trkpt>
      <trkpt lat="45.6623" lon="6.82176">
        <ele>2509.3</ele>
        <time>2011-03-27T08:42:38Z</time>
      </trkpt>
      <trkpt lat="45.6623" lon="6.82175">
        <ele>2509.3</ele>
        <time>2011-03-27T08:42:39Z</time>
      </trkpt>
      <trkpt lat="45.66237" lon="6.8218">
        <ele>2516.1</ele>
        <time>2011-03-27T08:44:13Z</time>
      </trkpt>
      <trkpt lat="45.66238" lon="6.8218">
        <ele>2516.1</ele>
        <time>2011-03-27T08:44:14Z</time>
      </trkpt>
      <trkpt lat="45.66247" lon="6.82171">
        <ele>2530.1</ele>
        <time>2011-03-27T08:47:18Z</time>
      </trkpt>
      <trkpt lat="45.66247" lon="6.82171">
        <ele>2530.1</ele>
        <time>2011-03-27T08:47:19Z</time>
      </trkpt>
      <trkpt lat="45.66255" lon="6.82174">
        <ele>2541.7</ele>
        <time>2011-03-27T08:50:11Z</time>
      </trkpt>
      <trkpt lat="45.66264" lon="6.82179">
        <ele>2550.9</ele>
        <time>2011-03-27T08:51:48Z</time>
      </trkpt>
      <trkpt lat="45.66272" lon="6.82185">
        <ele>2559.9</ele>
        <time>2011-03-27T08:54:24Z</time>
      </trkpt>
      <trkpt lat="45.66277" lon="6.82194">
        <ele>2568</ele>
        <time>2011-03-27T08:57:57Z</time>
      </trkpt>
      <trkpt lat="45.66286" lon="6.82194">
        <ele>2571.8</ele>
        <time>2011-03-27T09:00:53Z</time>
      </trkpt>
      <trkpt lat="45.66295" lon="6.82193">
        <ele>2584.3</ele>
        <time>2011-03-27T09:06:09Z</time>
      </trkpt>
      <trkpt lat="45.66299" lon="6.82204">
        <ele>2591.4</ele>
        <time>2011-03-27T09:12:34Z</time>
      </trkpt>
      <trkpt lat="45.66308" lon="6.822">
        <ele>2591.9</ele>
        <time>2011-03-27T09:15:31Z</time>
      </trkpt>
      <trkpt lat="45.66303" lon="6.82217">
        <ele>2591</ele>
        <time>2011-03-27T09:25:40Z</time>
      </trkpt>
      <trkpt lat="45.66303" lon="6.82218">
        <ele>2591</ele>
        <time>2011-03-27T09:25:41Z</time>
      </trkpt>
      <trkpt lat="45.66309" lon="6.82241">
        <ele>2590.9</ele>
        <time>2011-03-27T09:26:10Z</time>
      </trkpt>
      <trkpt lat="45.66303" lon="6.82249">
        <ele>2584.5</ele>
        <time>2011-03-27T09:26:59Z</time>
      </trkpt>
      <trkpt lat="45.66302" lon="6.82249">
        <ele>2584.5</ele>
        <time>2011-03-27T09:27:00Z</time>
      </trkpt>
      <trkpt lat="45.66292" lon="6.82261">
        <ele>2584.9</ele>
        <time>2011-03-27T09:27:40Z</time>
      </trkpt>
      <trkpt lat="45.6629" lon="6.82272">
        <ele>2583.7</ele>
        <time>2011-03-27T09:28:09Z</time>
      </trkpt>
      <trkpt lat="45.6629" lon="6.82273">
        <ele>2583.7</ele>
        <time>2011-03-27T09:28:10Z</time>
      </trkpt>
      <trkpt lat="45.66295" lon="6.82294">
        <ele>2578.6</ele>
        <time>2011-03-27T09:29:12Z</time>
      </trkpt>
      <trkpt lat="45.66296" lon="6.82295">
        <ele>2578.6</ele>
        <time>2011-03-27T09:29:13Z</time>
      </trkpt>
      <trkpt lat="45.66288" lon="6.82303">
        <ele>2575.6</ele>
        <time>2011-03-27T09:30:36Z</time>
      </trkpt>
      <trkpt lat="45.66288" lon="6.82303">
        <ele>2575.6</ele>
        <time>2011-03-27T09:30:37Z</time>
      </trkpt>
      <trkpt lat="45.6628" lon="6.82301">
        <ele>2571.2</ele>
        <time>2011-03-27T09:33:13Z</time>
      </trkpt>
      <trkpt lat="45.66271" lon="6.82298">
        <ele>2554.6</ele>
        <time>2011-03-27T09:39:24Z</time>
      </trkpt>
      <trkpt lat="45.66265" lon="6.82308">
        <ele>2544.4</ele>
        <time>2011-03-27T09:41:56Z</time>
      </trkpt>
      <trkpt lat="45.66258" lon="6.82316">
        <ele>2535.7</ele>
        <time>2011-03-27T09:44:14Z</time>
      </trkpt>
      <trkpt lat="45.66256" lon="6.82328">
        <ele>2529.4</ele>
        <time>2011-03-27T09:45:37Z</time>
      </trkpt>
      <trkpt lat="45.66249" lon="6.82305">
        <ele>2526.6</ele>
        <time>2011-03-27T09:47:00Z</time>
      </trkpt>
      <trkpt lat="45.66248" lon="6.82304">
        <ele>2526.6</ele>
        <time>2011-03-27T09:47:01Z</time>
      </trkpt>
      <trkpt lat="45.66246" lon="6.82281">
        <ele>2527.4</ele>
        <time>2011-03-27T09:47:49Z</time>
      </trkpt>
      <trkpt lat="45.66247" lon="6.82269">
        <ele>2526.9</ele>
        <time>2011-03-27T09:48:27Z</time>
      </trkpt>
      <trkpt lat="45.66248" lon="6.82268">
        <ele>2526.9</ele>
        <time>2011-03-27T09:48:28Z</time>
      </trkpt>
      <trkpt lat="45.66256" lon="6.82262">
        <ele>2532.7</ele>
        <time>2011-03-27T09:49:48Z</time>
      </trkpt>
      <trkpt lat="45.66256" lon="6.8225">
        <ele>2536.7</ele>
        <time>2011-03-27T09:51:06Z</time>
      </trkpt>
      <trkpt lat="45.66254" lon="6.82237">
        <ele>2537.5</ele>
        <time>2011-03-27T09:52:32Z</time>
      </trkpt>
      <trkpt lat="45.66259" lon="6.82225">
        <ele>2537.9</ele>
        <time>2011-03-27T09:53:49Z</time>
      </trkpt>
      <trkpt lat="45.66259" lon="6.82222">
        <ele>2537</ele>
        <time>2011-03-27T09:54:53Z</time>
      </trkpt>
      <trkpt lat="45.66258" lon="6.82223">
        <ele>2537</ele>
        <time>2011-03-27T09:54:54Z</time>
      </trkpt>
      <trkpt lat="45.6625" lon="6.82221">
        <ele>2536.3</ele>
        <time>2011-03-27T09:56:16Z</time>
      </trkpt>
      <trkpt lat="45.66233" lon="6.82217">
        <ele>2527.2</ele>
        <time>2011-03-27T09:57:24Z</time>
      </trkpt>
      <trkpt lat="45.66232" lon="6.82217">
        <ele>2527.2</ele>
        <time>2011-03-27T09:57:25Z</time>
      </trkpt>
      <trkpt lat="45.66235" lon="6.82202">
        <ele>2519.7</ele>
        <time>2011-03-27T09:58:04Z</time>
      </trkpt>
      <trkpt lat="45.66227" lon="6.82208">
        <ele>2518.7</ele>
        <time>2011-03-27T09:58:36Z</time>
      </trkpt>
      <trkpt lat="45.66227" lon="6.82208">
        <ele>2518.7</ele>
        <time>2011-03-27T09:58:37Z</time>
      </trkpt>
      <trkpt lat="45.66219" lon="6.82197">
        <ele>2508.4</ele>
        <time>2011-03-27T10:03:42Z</time>
      </trkpt>
      <trkpt lat="45.66219" lon="6.82196">
        <ele>2508.4</ele>
        <time>2011-03-27T10:03:43Z</time>
      </trkpt>
      <trkpt lat="45.66227" lon="6.8219">
        <ele>2506.6</ele>
        <time>2011-03-27T10:04:57Z</time>
      </trkpt>
      <trkpt lat="45.66224" lon="6.82174">
        <ele>2503.3</ele>
        <time>2011-03-27T10:07:27Z</time>
      </trkpt>
      <trkpt lat="45.66222" lon="6.82175">
        <ele>2503.3</ele>
        <time>2011-03-27T10:07:28Z</time>
      </trkpt>
      <trkpt lat="45.66213" lon="6.82164">
        <ele>2492.8</ele>
        <time>2011-03-27T10:11:07Z</time>
      </trkpt>
      <trkpt lat="45.66213" lon="6.82165">
        <ele>2492.8</ele>
        <time>2011-03-27T10:11:08Z</time>
      </trkpt>
      <trkpt lat="45.66221" lon="6.82157">
        <ele>2491</ele>
        <time>2011-03-27T10:14:02Z</time>
      </trkpt>
      <trkpt lat="45.66206" lon="6.82161">
        <ele>2491.8</ele>
        <time>2011-03-27T10:16:47Z</time>
      </trkpt>
      <trkpt lat="45.66203" lon="6.82162">
        <ele>2491.8</ele>
        <time>2011-03-27T10:16:48Z</time>
      </trkpt>
      <trkpt lat="45.66192" lon="6.82168">
        <ele>2489</ele>
        <time>2011-03-27T10:16:58Z</time>
      </trkpt>
      <trkpt lat="45.66189" lon="6.8217">
        <ele>2488.6</ele>
        <time>2011-03-27T10:16:59Z</time>
      </trkpt>
      <trkpt lat="45.66193" lon="6.82167">
        <ele>2493.4</ele>
        <time>2011-03-27T10:17:08Z</time>
      </trkpt>
      <trkpt lat="45.66199" lon="6.82165">
        <ele>2493.4</ele>
        <time>2011-03-27T10:17:09Z</time>
      </trkpt>
      <trkpt lat="45.66204" lon="6.82164">
        <ele>2493.6</ele>
        <time>2011-03-27T10:17:10Z</time>
      </trkpt>
      <trkpt lat="45.66211" lon="6.82157">
        <ele>2492</ele>
        <time>2011-03-27T10:17:23Z</time>
      </trkpt>
      <trkpt lat="45.66212" lon="6.82147">
        <ele>2489.9</ele>
        <time>2011-03-27T10:19:24Z</time>
      </trkpt>
      <trkpt lat="45.66211" lon="6.8214">
        <ele>2489.9</ele>
        <time>2011-03-27T10:19:25Z</time>
      </trkpt>
      <trkpt lat="45.6621" lon="6.82132">
        <ele>2489.8</ele>
        <time>2011-03-27T10:19:26Z</time>
      </trkpt>
      <trkpt lat="45.6621" lon="6.82124">
        <ele>2489.1</ele>
        <time>2011-03-27T10:19:27Z</time>
      </trkpt>
      <trkpt lat="45.66211" lon="6.82115">
        <ele>2488.1</ele>
        <time>2011-03-27T10:19:28Z</time>
      </trkpt>
      <trkpt lat="45.66211" lon="6.82107">
        <ele>2487.8</ele>
        <time>2011-03-27T10:19:29Z</time>
      </trkpt>
      <trkpt lat="45.66212" lon="6.82095">
        <ele>2486.4</ele>
        <time>2011-03-27T10:19:31Z</time>
      </trkpt>
      <trkpt lat="45.66215" lon="6.82083">
        <ele>2485.6</ele>
        <time>2011-03-27T10:19:35Z</time>
      </trkpt>
      <trkpt lat="45.66217" lon="6.82075">
        <ele>2485.1</ele>
        <time>2011-03-27T10:19:38Z</time>
      </trkpt>
      <trkpt lat="45.6622" lon="6.82063">
        <ele>2484.3</ele>
        <time>2011-03-27T10:19:42Z</time>
      </trkpt>
      <trkpt lat="45.66215" lon="6.82055">
        <ele>2480.7</ele>
        <time>2011-03-27T10:20:18Z</time>
      </trkpt>
      <trkpt lat="45.66209" lon="6.82047">
        <ele>2472.4</ele>
        <time>2011-03-27T10:20:41Z</time>
      </trkpt>
      <trkpt lat="45.66207" lon="6.82041">
        <ele>2472.4</ele>
        <time>2011-03-27T10:20:42Z</time>
      </trkpt>
      <trkpt lat="45.66203" lon="6.82034">
        <ele>2471.5</ele>
        <time>2011-03-27T10:20:43Z</time>
      </trkpt>
      <trkpt lat="45.662" lon="6.82026">
        <ele>2470.1</ele>
        <time>2011-03-27T10:20:44Z</time>
      </trkpt>
      <trkpt lat="45.66197" lon="6.82019">
        <ele>2469.5</ele>
        <time>2011-03-27T10:20:45Z</time>
      </trkpt>
      <trkpt lat="45.66193" lon="6.82011">
        <ele>2468.7</ele>
        <time>2011-03-27T10:20:46Z</time>
      </trkpt>
      <trkpt lat="45.66188" lon="6.82001">
        <ele>2467.8</ele>
        <time>2011-03-27T10:20:47Z</time>
      </trkpt>
      <trkpt lat="45.66183" lon="6.81992">
        <ele>2466.9</ele>
        <time>2011-03-27T10:20:48Z</time>
      </trkpt>
      <trkpt lat="45.66178" lon="6.81983">
        <ele>2466.4</ele>
        <time>2011-03-27T10:20:49Z</time>
      </trkpt>
      <trkpt lat="45.66173" lon="6.81976">
        <ele>2466</ele>
        <time>2011-03-27T10:20:50Z</time>
      </trkpt>
      <trkpt lat="45.6617" lon="6.81969">
        <ele>2465.1</ele>
        <time>2011-03-27T10:20:51Z</time>
      </trkpt>
      <trkpt lat="45.66167" lon="6.81963">
        <ele>2464.1</ele>
        <time>2011-03-27T10:20:52Z</time>
      </trkpt>
      <trkpt lat="45.66162" lon="6.81953">
        <ele>2462.9</ele>
        <time>2011-03-27T10:20:54Z</time>
      </trkpt>
      <trkpt lat="45.66158" lon="6.81942">
        <ele>2461.2</ele>
        <time>2011-03-27T10:21:00Z</time>
      </trkpt>
      <trkpt lat="45.66154" lon="6.81931">
        <ele>2461</ele>
        <time>2011-03-27T10:21:02Z</time>
      </trkpt>
      <trkpt lat="45.66152" lon="6.81924">
        <ele>2460.4</ele>
        <time>2011-03-27T10:21:03Z</time>
      </trkpt>
      <trkpt lat="45.66149" lon="6.81914">
        <ele>2459.3</ele>
        <time>2011-03-27T10:21:04Z</time>
      </trkpt>
      <trkpt lat="45.66147" lon="6.81905">
        <ele>2459.1</ele>
        <time>2011-03-27T10:21:05Z</time>
      </trkpt>
      <trkpt lat="45.66144" lon="6.81896">
        <ele>2458.8</ele>
        <time>2011-03-27T10:21:06Z</time>
      </trkpt>
      <trkpt lat="45.66142" lon="6.81887">
        <ele>2459.1</ele>
        <time>2011-03-27T10:21:07Z</time>
      </trkpt>
      <trkpt lat="45.66138" lon="6.81876">
        <ele>2458.1</ele>
        <time>2011-03-27T10:21:09Z</time>
      </trkpt>
      <trkpt lat="45.66134" lon="6.81867">
        <ele>2457.9</ele>
        <time>2011-03-27T10:21:11Z</time>
      </trkpt>
      <trkpt lat="45.66128" lon="6.81867">
        <ele>2456.3</ele>
        <time>2011-03-27T10:21:32Z</time>
      </trkpt>
      <trkpt lat="45.66122" lon="6.81871">
        <ele>2453.1</ele>
        <time>2011-03-27T10:21:34Z</time>
      </trkpt>
      <trkpt lat="45.66117" lon="6.81877">
        <ele>2448.3</ele>
        <time>2011-03-27T10:21:36Z</time>
      </trkpt>
      <trkpt lat="45.66112" lon="6.81885">
        <ele>2443.6</ele>
        <time>2011-03-27T10:21:38Z</time>
      </trkpt>
      <trkpt lat="45.66108" lon="6.81892">
        <ele>2438.9</ele>
        <time>2011-03-27T10:21:40Z</time>
      </trkpt>
      <trkpt lat="45.66102" lon="6.81897">
        <ele>2432.8</ele>
        <time>2011-03-27T10:21:42Z</time>
      </trkpt>
      <trkpt lat="45.66099" lon="6.81895">
        <ele>2432.8</ele>
        <time>2011-03-27T10:21:43Z</time>
      </trkpt>
      <trkpt lat="45.661" lon="6.81873">
        <ele>2424</ele>
        <time>2011-03-27T10:22:06Z</time>
      </trkpt>
      <trkpt lat="45.66091" lon="6.81876">
        <ele>2420.6</ele>
        <time>2011-03-27T10:22:42Z</time>
      </trkpt>
      <trkpt lat="45.66086" lon="6.81882">
        <ele>2419.3</ele>
        <time>2011-03-27T10:22:43Z</time>
      </trkpt>
      <trkpt lat="45.66081" lon="6.81888">
        <ele>2419.3</ele>
        <time>2011-03-27T10:22:44Z</time>
      </trkpt>
      <trkpt lat="45.66072" lon="6.81889">
        <ele>2411.7</ele>
        <time>2011-03-27T10:22:46Z</time>
      </trkpt>
      <trkpt lat="45.66067" lon="6.81886">
        <ele>2410</ele>
        <time>2011-03-27T10:22:47Z</time>
      </trkpt>
      <trkpt lat="45.66061" lon="6.81886">
        <ele>2407.5</ele>
        <time>2011-03-27T10:22:48Z</time>
      </trkpt>
      <trkpt lat="45.66053" lon="6.81885">
        <ele>2404.9</ele>
        <time>2011-03-27T10:22:49Z</time>
      </trkpt>
      <trkpt lat="45.66049" lon="6.8188">
        <ele>2401.2</ele>
        <time>2011-03-27T10:22:50Z</time>
      </trkpt>
      <trkpt lat="45.66045" lon="6.81872">
        <ele>2398.7</ele>
        <time>2011-03-27T10:22:51Z</time>
      </trkpt>
      <trkpt lat="45.66039" lon="6.81867">
        <ele>2396</ele>
        <time>2011-03-27T10:22:52Z</time>
      </trkpt>
      <trkpt lat="45.66036" lon="6.81859">
        <ele>2393.1</ele>
        <time>2011-03-27T10:22:53Z</time>
      </trkpt>
      <trkpt lat="45.66035" lon="6.8185">
        <ele>2390.2</ele>
        <time>2011-03-27T10:22:54Z</time>
      </trkpt>
      <trkpt lat="45.66032" lon="6.81842">
        <ele>2388</ele>
        <time>2011-03-27T10:22:55Z</time>
      </trkpt>
      <trkpt lat="45.6603" lon="6.81835">
        <ele>2385.9</ele>
        <time>2011-03-27T10:22:56Z</time>
      </trkpt>
      <trkpt lat="45.66027" lon="6.81827">
        <ele>2383.4</ele>
        <time>2011-03-27T10:22:57Z</time>
      </trkpt>
      <trkpt lat="45.66021" lon="6.81827">
        <ele>2381.2</ele>
        <time>2011-03-27T10:22:58Z</time>
      </trkpt>
      <trkpt lat="45.66013" lon="6.8183">
        <ele>2377.4</ele>
        <time>2011-03-27T10:22:59Z</time>
      </trkpt>
      <trkpt lat="45.66006" lon="6.81834">
        <ele>2375.6</ele>
        <time>2011-03-27T10:23:00Z</time>
      </trkpt>
      <trkpt lat="45.65998" lon="6.81838">
        <ele>2373.4</ele>
        <time>2011-03-27T10:23:01Z</time>
      </trkpt>
      <trkpt lat="45.65991" lon="6.81843">
        <ele>2371.7</ele>
        <time>2011-03-27T10:23:02Z</time>
      </trkpt>
      <trkpt lat="45.65985" lon="6.81846">
        <ele>2370.1</ele>
        <time>2011-03-27T10:23:03Z</time>
      </trkpt>
      <trkpt lat="45.6598" lon="6.81845">
        <ele>2366.4</ele>
        <time>2011-03-27T10:23:04Z</time>
      </trkpt>
      <trkpt lat="45.65972" lon="6.81845">
        <ele>2363.7</ele>
        <time>2011-03-27T10:23:05Z</time>
      </trkpt>
      <trkpt lat="45.65964" lon="6.81849">
        <ele>2361.9</ele>
        <time>2011-03-27T10:23:06Z</time>
      </trkpt>
      <trkpt lat="45.65955" lon="6.81852">
        <ele>2360</ele>
        <time>2011-03-27T10:23:07Z</time>
      </trkpt>
      <trkpt lat="45.65947" lon="6.81847">
        <ele>2352.5</ele>
        <time>2011-03-27T10:23:16Z</time>
      </trkpt>
      <trkpt lat="45.65955" lon="6.81845">
        <ele>2351.5</ele>
        <time>2011-03-27T10:23:58Z</time>
      </trkpt>
      <trkpt lat="45.65957" lon="6.81841">
        <ele>2351.5</ele>
        <time>2011-03-27T10:23:59Z</time>
      </trkpt>
      <trkpt lat="45.65952" lon="6.81821">
        <ele>2344.3</ele>
        <time>2011-03-27T10:24:03Z</time>
      </trkpt>
      <trkpt lat="45.65949" lon="6.81814">
        <ele>2343</ele>
        <time>2011-03-27T10:24:04Z</time>
      </trkpt>
      <trkpt lat="45.65945" lon="6.81809">
        <ele>2340.7</ele>
        <time>2011-03-27T10:24:05Z</time>
      </trkpt>
      <trkpt lat="45.65941" lon="6.81805">
        <ele>2339.2</ele>
        <time>2011-03-27T10:24:06Z</time>
      </trkpt>
      <trkpt lat="45.65938" lon="6.81799">
        <ele>2337.6</ele>
        <time>2011-03-27T10:24:07Z</time>
      </trkpt>
      <trkpt lat="45.65934" lon="6.81795">
        <ele>2336.6</ele>
        <time>2011-03-27T10:24:08Z</time>
      </trkpt>
      <trkpt lat="45.65931" lon="6.8179">
        <ele>2333.8</ele>
        <time>2011-03-27T10:24:09Z</time>
      </trkpt>
      <trkpt lat="45.65928" lon="6.81782">
        <ele>2329.1</ele>
        <time>2011-03-27T10:24:10Z</time>
      </trkpt>
      <trkpt lat="45.65924" lon="6.81779">
        <ele>2327.4</ele>
        <time>2011-03-27T10:24:11Z</time>
      </trkpt>
      <trkpt lat="45.65921" lon="6.81773">
        <ele>2324.5</ele>
        <time>2011-03-27T10:24:12Z</time>
      </trkpt>
      <trkpt lat="45.65915" lon="6.81769">
        <ele>2322</ele>
        <time>2011-03-27T10:24:13Z</time>
      </trkpt>
      <trkpt lat="45.65908" lon="6.81769">
        <ele>2319.4</ele>
        <time>2011-03-27T10:24:14Z</time>
      </trkpt>
      <trkpt lat="45.65903" lon="6.81765">
        <ele>2316.6</ele>
        <time>2011-03-27T10:24:15Z</time>
      </trkpt>
      <trkpt lat="45.65898" lon="6.81759">
        <ele>2314.4</ele>
        <time>2011-03-27T10:24:16Z</time>
      </trkpt>
      <trkpt lat="45.6589" lon="6.81756">
        <ele>2312.6</ele>
        <time>2011-03-27T10:24:17Z</time>
      </trkpt>
      <trkpt lat="45.65883" lon="6.8175">
        <ele>2309.8</ele>
        <time>2011-03-27T10:24:18Z</time>
      </trkpt>
      <trkpt lat="45.65878" lon="6.81741">
        <ele>2307.1</ele>
        <time>2011-03-27T10:24:19Z</time>
      </trkpt>
      <trkpt lat="45.65874" lon="6.81733">
        <ele>2304.3</ele>
        <time>2011-03-27T10:24:20Z</time>
      </trkpt>
      <trkpt lat="45.65869" lon="6.8173">
        <ele>2301.9</ele>
        <time>2011-03-27T10:24:21Z</time>
      </trkpt>
      <trkpt lat="45.65864" lon="6.8173">
        <ele>2298.6</ele>
        <time>2011-03-27T10:24:22Z</time>
      </trkpt>
      <trkpt lat="45.65857" lon="6.81724">
        <ele>2296</ele>
        <time>2011-03-27T10:24:23Z</time>
      </trkpt>
      <trkpt lat="45.65849" lon="6.81717">
        <ele>2292.7</ele>
        <time>2011-03-27T10:24:24Z</time>
      </trkpt>
      <trkpt lat="45.65842" lon="6.81713">
        <ele>2290.2</ele>
        <time>2011-03-27T10:24:25Z</time>
      </trkpt>
      <trkpt lat="45.65837" lon="6.81707">
        <ele>2287.4</ele>
        <time>2011-03-27T10:24:26Z</time>
      </trkpt>
      <trkpt lat="45.6583" lon="6.81699">
        <ele>2285.2</ele>
        <time>2011-03-27T10:24:27Z</time>
      </trkpt>
      <trkpt lat="45.65819" lon="6.81697">
        <ele>2283.5</ele>
        <time>2011-03-27T10:24:28Z</time>
      </trkpt>
      <trkpt lat="45.65808" lon="6.81697">
        <ele>2281.9</ele>
        <time>2011-03-27T10:24:29Z</time>
      </trkpt>
      <trkpt lat="45.65801" lon="6.81699">
        <ele>2277.8</ele>
        <time>2011-03-27T10:24:30Z</time>
      </trkpt>
      <trkpt lat="45.65792" lon="6.81697">
        <ele>2276.9</ele>
        <time>2011-03-27T10:24:31Z</time>
      </trkpt>
      <trkpt lat="45.65786" lon="6.81695">
        <ele>2276.2</ele>
        <time>2011-03-27T10:24:32Z</time>
      </trkpt>
      <trkpt lat="45.65783" lon="6.81685">
        <ele>2273.6</ele>
        <time>2011-03-27T10:24:35Z</time>
      </trkpt>
      <trkpt lat="45.6579" lon="6.81683">
        <ele>2272.2</ele>
        <time>2011-03-27T10:24:40Z</time>
      </trkpt>
      <trkpt lat="45.65798" lon="6.81686">
        <ele>2272</ele>
        <time>2011-03-27T10:24:45Z</time>
      </trkpt>
      <trkpt lat="45.65796" lon="6.81681">
        <ele>2270.5</ele>
        <time>2011-03-27T10:24:52Z</time>
      </trkpt>
      <trkpt lat="45.65792" lon="6.81676">
        <ele>2269.4</ele>
        <time>2011-03-27T10:24:53Z</time>
      </trkpt>
      <trkpt lat="45.65788" lon="6.81673">
        <ele>2268</ele>
        <time>2011-03-27T10:24:54Z</time>
      </trkpt>
      <trkpt lat="45.65784" lon="6.81669">
        <ele>2265.7</ele>
        <time>2011-03-27T10:24:55Z</time>
      </trkpt>
      <trkpt lat="45.65781" lon="6.81663">
        <ele>2264</ele>
        <time>2011-03-27T10:24:56Z</time>
      </trkpt>
      <trkpt lat="45.65777" lon="6.81657">
        <ele>2261.3</ele>
        <time>2011-03-27T10:24:57Z</time>
      </trkpt>
      <trkpt lat="45.65775" lon="6.81648">
        <ele>2257.5</ele>
        <time>2011-03-27T10:24:58Z</time>
      </trkpt>
      <trkpt lat="45.65771" lon="6.8164">
        <ele>2253.9</ele>
        <time>2011-03-27T10:24:59Z</time>
      </trkpt>
      <trkpt lat="45.65769" lon="6.81632">
        <ele>2251.4</ele>
        <time>2011-03-27T10:25:00Z</time>
      </trkpt>
      <trkpt lat="45.65764" lon="6.81625">
        <ele>2251.4</ele>
        <time>2011-03-27T10:25:01Z</time>
      </trkpt>
      <trkpt lat="45.65762" lon="6.81616">
        <ele>2244.6</ele>
        <time>2011-03-27T10:25:03Z</time>
      </trkpt>
      <trkpt lat="45.65759" lon="6.81606">
        <ele>2241.8</ele>
        <time>2011-03-27T10:25:05Z</time>
      </trkpt>
      <trkpt lat="45.65761" lon="6.81601">
        <ele>2240.3</ele>
        <time>2011-03-27T10:25:06Z</time>
      </trkpt>
      <trkpt lat="45.65762" lon="6.81592">
        <ele>2238.9</ele>
        <time>2011-03-27T10:25:07Z</time>
      </trkpt>
      <trkpt lat="45.65759" lon="6.81586">
        <ele>2237.2</ele>
        <time>2011-03-27T10:25:08Z</time>
      </trkpt>
      <trkpt lat="45.65756" lon="6.81581">
        <ele>2234.4</ele>
        <time>2011-03-27T10:25:09Z</time>
      </trkpt>
      <trkpt lat="45.65754" lon="6.81572">
        <ele>2232.1</ele>
        <time>2011-03-27T10:25:10Z</time>
      </trkpt>
      <trkpt lat="45.6575" lon="6.81559">
        <ele>2230</ele>
        <time>2011-03-27T10:25:11Z</time>
      </trkpt>
      <trkpt lat="45.65748" lon="6.81545">
        <ele>2227.3</ele>
        <time>2011-03-27T10:25:12Z</time>
      </trkpt>
      <trkpt lat="45.65746" lon="6.81532">
        <ele>2226.1</ele>
        <time>2011-03-27T10:25:13Z</time>
      </trkpt>
      <trkpt lat="45.65744" lon="6.81519">
        <ele>2224.9</ele>
        <time>2011-03-27T10:25:14Z</time>
      </trkpt>
      <trkpt lat="45.65742" lon="6.81508">
        <ele>2223.9</ele>
        <time>2011-03-27T10:25:15Z</time>
      </trkpt>
      <trkpt lat="45.65742" lon="6.815">
        <ele>2223</ele>
        <time>2011-03-27T10:25:16Z</time>
      </trkpt>
      <trkpt lat="45.65741" lon="6.81487">
        <ele>2219.6</ele>
        <time>2011-03-27T10:25:21Z</time>
      </trkpt>
      <trkpt lat="45.65738" lon="6.81496">
        <ele>2219.6</ele>
        <time>2011-03-27T10:25:45Z</time>
      </trkpt>
      <trkpt lat="45.65733" lon="6.81505">
        <ele>2217</ele>
        <time>2011-03-27T10:25:47Z</time>
      </trkpt>
      <trkpt lat="45.6573" lon="6.81509">
        <ele>2215.2</ele>
        <time>2011-03-27T10:25:48Z</time>
      </trkpt>
      <trkpt lat="45.65724" lon="6.81509">
        <ele>2213</ele>
        <time>2011-03-27T10:25:49Z</time>
      </trkpt>
      <trkpt lat="45.65719" lon="6.81512">
        <ele>2210.6</ele>
        <time>2011-03-27T10:25:50Z</time>
      </trkpt>
      <trkpt lat="45.65713" lon="6.81513">
        <ele>2208.5</ele>
        <time>2011-03-27T10:25:51Z</time>
      </trkpt>
      <trkpt lat="45.65708" lon="6.81518">
        <ele>2206.6</ele>
        <time>2011-03-27T10:25:52Z</time>
      </trkpt>
      <trkpt lat="45.65702" lon="6.81521">
        <ele>2204.6</ele>
        <time>2011-03-27T10:25:53Z</time>
      </trkpt>
      <trkpt lat="45.65697" lon="6.81523">
        <ele>2202.3</ele>
        <time>2011-03-27T10:25:54Z</time>
      </trkpt>
      <trkpt lat="45.6569" lon="6.81527">
        <ele>2200.2</ele>
        <time>2011-03-27T10:25:55Z</time>
      </trkpt>
      <trkpt lat="45.65683" lon="6.8153">
        <ele>2197.6</ele>
        <time>2011-03-27T10:25:56Z</time>
      </trkpt>
      <trkpt lat="45.65677" lon="6.81528">
        <ele>2194.5</ele>
        <time>2011-03-27T10:25:57Z</time>
      </trkpt>
      <trkpt lat="45.65666" lon="6.81529">
        <ele>2188.4</ele>
        <time>2011-03-27T10:25:58Z</time>
      </trkpt>
      <trkpt lat="45.65659" lon="6.81527">
        <ele>2186.8</ele>
        <time>2011-03-27T10:25:59Z</time>
      </trkpt>
      <trkpt lat="45.65654" lon="6.81521">
        <ele>2183.6</ele>
        <time>2011-03-27T10:26:00Z</time>
      </trkpt>
      <trkpt lat="45.65651" lon="6.81515">
        <ele>2182.4</ele>
        <time>2011-03-27T10:26:01Z</time>
      </trkpt>
      <trkpt lat="45.65646" lon="6.81507">
        <ele>2182.4</ele>
        <time>2011-03-27T10:26:02Z</time>
      </trkpt>
      <trkpt lat="45.65639" lon="6.81501">
        <ele>2179.4</ele>
        <time>2011-03-27T10:26:03Z</time>
      </trkpt>
      <trkpt lat="45.65631" lon="6.81499">
        <ele>2177.5</ele>
        <time>2011-03-27T10:26:05Z</time>
      </trkpt>
      <trkpt lat="45.65636" lon="6.81491">
        <ele>2174.9</ele>
        <time>2011-03-27T10:26:10Z</time>
      </trkpt>
      <trkpt lat="45.65642" lon="6.81483">
        <ele>2173.4</ele>
        <time>2011-03-27T10:26:17Z</time>
      </trkpt>
      <trkpt lat="45.65645" lon="6.81474">
        <ele>2172.4</ele>
        <time>2011-03-27T10:26:29Z</time>
      </trkpt>
      <trkpt lat="45.65639" lon="6.81464">
        <ele>2169.4</ele>
        <time>2011-03-27T10:26:32Z</time>
      </trkpt>
      <trkpt lat="45.65638" lon="6.81459">
        <ele>2167</ele>
        <time>2011-03-27T10:26:33Z</time>
      </trkpt>
      <trkpt lat="45.65637" lon="6.81451">
        <ele>2164.8</ele>
        <time>2011-03-27T10:26:34Z</time>
      </trkpt>
      <trkpt lat="45.65633" lon="6.81446">
        <ele>2162.5</ele>
        <time>2011-03-27T10:26:35Z</time>
      </trkpt>
      <trkpt lat="45.65629" lon="6.81441">
        <ele>2160.1</ele>
        <time>2011-03-27T10:26:36Z</time>
      </trkpt>
      <trkpt lat="45.65626" lon="6.81433">
        <ele>2158.6</ele>
        <time>2011-03-27T10:26:37Z</time>
      </trkpt>
      <trkpt lat="45.65632" lon="6.81421">
        <ele>2156.7</ele>
        <time>2011-03-27T10:26:38Z</time>
      </trkpt>
      <trkpt lat="45.65633" lon="6.81408">
        <ele>2150.3</ele>
        <time>2011-03-27T10:26:40Z</time>
      </trkpt>
      <trkpt lat="45.65633" lon="6.81397">
        <ele>2146</ele>
        <time>2011-03-27T10:26:42Z</time>
      </trkpt>
      <trkpt lat="45.65626" lon="6.81391">
        <ele>2142.9</ele>
        <time>2011-03-27T10:26:43Z</time>
      </trkpt>
      <trkpt lat="45.65619" lon="6.81392">
        <ele>2141.6</ele>
        <time>2011-03-27T10:26:44Z</time>
      </trkpt>
      <trkpt lat="45.65611" lon="6.81396">
        <ele>2140.7</ele>
        <time>2011-03-27T10:26:45Z</time>
      </trkpt>
      <trkpt lat="45.65598" lon="6.81404">
        <ele>2138.1</ele>
        <time>2011-03-27T10:26:46Z</time>
      </trkpt>
      <trkpt lat="45.65588" lon="6.81414">
        <ele>2136.3</ele>
        <time>2011-03-27T10:26:47Z</time>
      </trkpt>
      <trkpt lat="45.6558" lon="6.81415">
        <ele>2134.5</ele>
        <time>2011-03-27T10:26:48Z</time>
      </trkpt>
      <trkpt lat="45.65573" lon="6.8141">
        <ele>2131.7</ele>
        <time>2011-03-27T10:26:49Z</time>
      </trkpt>
      <trkpt lat="45.65563" lon="6.81398">
        <ele>2129.5</ele>
        <time>2011-03-27T10:26:50Z</time>
      </trkpt>
      <trkpt lat="45.65554" lon="6.81393">
        <ele>2126.7</ele>
        <time>2011-03-27T10:26:51Z</time>
      </trkpt>
      <trkpt lat="45.65543" lon="6.81387">
        <ele>2124.2</ele>
        <time>2011-03-27T10:26:52Z</time>
      </trkpt>
      <trkpt lat="45.65535" lon="6.8138">
        <ele>2122.4</ele>
        <time>2011-03-27T10:26:53Z</time>
      </trkpt>
      <trkpt lat="45.65523" lon="6.81377">
        <ele>2120.2</ele>
        <time>2011-03-27T10:26:54Z</time>
      </trkpt>
      <trkpt lat="45.65513" lon="6.81374">
        <ele>2117.3</ele>
        <time>2011-03-27T10:26:55Z</time>
      </trkpt>
      <trkpt lat="45.65502" lon="6.81372">
        <ele>2115.5</ele>
        <time>2011-03-27T10:26:56Z</time>
      </trkpt>
      <trkpt lat="45.65494" lon="6.81375">
        <ele>2114.1</ele>
        <time>2011-03-27T10:26:57Z</time>
      </trkpt>
      <trkpt lat="45.65486" lon="6.81373">
        <ele>2112.1</ele>
        <time>2011-03-27T10:26:58Z</time>
      </trkpt>
      <trkpt lat="45.65478" lon="6.81369">
        <ele>2109.6</ele>
        <time>2011-03-27T10:26:59Z</time>
      </trkpt>
      <trkpt lat="45.65477" lon="6.81357">
        <ele>2100.7</ele>
        <time>2011-03-27T10:27:06Z</time>
      </trkpt>
      <trkpt lat="45.65475" lon="6.81351">
        <ele>2100.7</ele>
        <time>2011-03-27T10:27:07Z</time>
      </trkpt>
      <trkpt lat="45.65469" lon="6.81346">
        <ele>2097.6</ele>
        <time>2011-03-27T10:27:08Z</time>
      </trkpt>
      <trkpt lat="45.65465" lon="6.81336">
        <ele>2094.9</ele>
        <time>2011-03-27T10:27:09Z</time>
      </trkpt>
      <trkpt lat="45.65462" lon="6.81325">
        <ele>2092.5</ele>
        <time>2011-03-27T10:27:10Z</time>
      </trkpt>
      <trkpt lat="45.65454" lon="6.81316">
        <ele>2090.5</ele>
        <time>2011-03-27T10:27:11Z</time>
      </trkpt>
      <trkpt lat="45.6545" lon="6.81308">
        <ele>2088.7</ele>
        <time>2011-03-27T10:27:12Z</time>
      </trkpt>
      <trkpt lat="45.65445" lon="6.81297">
        <ele>2086.8</ele>
        <time>2011-03-27T10:27:13Z</time>
      </trkpt>
      <trkpt lat="45.6544" lon="6.81286">
        <ele>2083.6</ele>
        <time>2011-03-27T10:27:14Z</time>
      </trkpt>
      <trkpt lat="45.65433" lon="6.81277">
        <ele>2081.5</ele>
        <time>2011-03-27T10:27:15Z</time>
      </trkpt>
      <trkpt lat="45.65427" lon="6.81268">
        <ele>2080</ele>
        <time>2011-03-27T10:27:16Z</time>
      </trkpt>
      <trkpt lat="45.65424" lon="6.81259">
        <ele>2078.2</ele>
        <time>2011-03-27T10:27:17Z</time>
      </trkpt>
      <trkpt lat="45.65425" lon="6.8125">
        <ele>2076.3</ele>
        <time>2011-03-27T10:27:18Z</time>
      </trkpt>
      <trkpt lat="45.65422" lon="6.81242">
        <ele>2075.2</ele>
        <time>2011-03-27T10:27:19Z</time>
      </trkpt>
      <trkpt lat="45.65419" lon="6.81238">
        <ele>2074.1</ele>
        <time>2011-03-27T10:27:20Z</time>
      </trkpt>
      <trkpt lat="45.65414" lon="6.81232">
        <ele>2072.2</ele>
        <time>2011-03-27T10:27:21Z</time>
      </trkpt>
      <trkpt lat="45.65408" lon="6.81226">
        <ele>2069.5</ele>
        <time>2011-03-27T10:27:22Z</time>
      </trkpt>
      <trkpt lat="45.65404" lon="6.81219">
        <ele>2067.9</ele>
        <time>2011-03-27T10:27:23Z</time>
      </trkpt>
      <trkpt lat="45.654" lon="6.8121">
        <ele>2065.8</ele>
        <time>2011-03-27T10:27:25Z</time>
      </trkpt>
      <trkpt lat="45.65397" lon="6.81203">
        <ele>2064.4</ele>
        <time>2011-03-27T10:27:27Z</time>
      </trkpt>
      <trkpt lat="45.65396" lon="6.81196">
        <ele>2063.7</ele>
        <time>2011-03-27T10:27:28Z</time>
      </trkpt>
      <trkpt lat="45.65397" lon="6.81189">
        <ele>2062.8</ele>
        <time>2011-03-27T10:27:29Z</time>
      </trkpt>
      <trkpt lat="45.65393" lon="6.81184">
        <ele>2061.7</ele>
        <time>2011-03-27T10:27:30Z</time>
      </trkpt>
      <trkpt lat="45.65385" lon="6.81185">
        <ele>2061.8</ele>
        <time>2011-03-27T10:27:31Z</time>
      </trkpt>
      <trkpt lat="45.6538" lon="6.81184">
        <ele>2060.3</ele>
        <time>2011-03-27T10:27:32Z</time>
      </trkpt>
      <trkpt lat="45.65376" lon="6.81185">
        <ele>2059.1</ele>
        <time>2011-03-27T10:27:33Z</time>
      </trkpt>
      <trkpt lat="45.6537" lon="6.81187">
        <ele>2057.7</ele>
        <time>2011-03-27T10:27:34Z</time>
      </trkpt>
      <trkpt lat="45.65364" lon="6.81186">
        <ele>2055.6</ele>
        <time>2011-03-27T10:27:35Z</time>
      </trkpt>
      <trkpt lat="45.6536" lon="6.81183">
        <ele>2052.1</ele>
        <time>2011-03-27T10:27:36Z</time>
      </trkpt>
      <trkpt lat="45.65353" lon="6.81183">
        <ele>2050</ele>
        <time>2011-03-27T10:27:37Z</time>
      </trkpt>
      <trkpt lat="45.65347" lon="6.81186">
        <ele>2048.5</ele>
        <time>2011-03-27T10:27:38Z</time>
      </trkpt>
      <trkpt lat="45.65341" lon="6.81183">
        <ele>2047.1</ele>
        <time>2011-03-27T10:27:39Z</time>
      </trkpt>
      <trkpt lat="45.65334" lon="6.81183">
        <ele>2045.6</ele>
        <time>2011-03-27T10:27:40Z</time>
      </trkpt>
      <trkpt lat="45.65326" lon="6.81184">
        <ele>2043.6</ele>
        <time>2011-03-27T10:27:41Z</time>
      </trkpt>
      <trkpt lat="45.6532" lon="6.8118">
        <ele>2041</ele>
        <time>2011-03-27T10:27:42Z</time>
      </trkpt>
      <trkpt lat="45.65314" lon="6.8118">
        <ele>2038.5</ele>
        <time>2011-03-27T10:27:43Z</time>
      </trkpt>
      <trkpt lat="45.65304" lon="6.81179">
        <ele>2035.6</ele>
        <time>2011-03-27T10:27:44Z</time>
      </trkpt>
      <trkpt lat="45.65297" lon="6.8118">
        <ele>2033.2</ele>
        <time>2011-03-27T10:27:45Z</time>
      </trkpt>
      <trkpt lat="45.65291" lon="6.81178">
        <ele>2031</ele>
        <time>2011-03-27T10:27:46Z</time>
      </trkpt>
      <trkpt lat="45.65282" lon="6.81175">
        <ele>2029.3</ele>
        <time>2011-03-27T10:27:47Z</time>
      </trkpt>
      <trkpt lat="45.65275" lon="6.81173">
        <ele>2027.2</ele>
        <time>2011-03-27T10:27:48Z</time>
      </trkpt>
      <trkpt lat="45.65273" lon="6.81168">
        <ele>2024.8</ele>
        <time>2011-03-27T10:27:49Z</time>
      </trkpt>
      <trkpt lat="45.65266" lon="6.81162">
        <ele>2022.8</ele>
        <time>2011-03-27T10:27:50Z</time>
      </trkpt>
      <trkpt lat="45.6526" lon="6.81156">
        <ele>2019.5</ele>
        <time>2011-03-27T10:27:51Z</time>
      </trkpt>
      <trkpt lat="45.65257" lon="6.81146">
        <ele>2016.9</ele>
        <time>2011-03-27T10:27:52Z</time>
      </trkpt>
      <trkpt lat="45.6525" lon="6.81138">
        <ele>2012.8</ele>
        <time>2011-03-27T10:27:53Z</time>
      </trkpt>
      <trkpt lat="45.65242" lon="6.81132">
        <ele>2010.2</ele>
        <time>2011-03-27T10:27:54Z</time>
      </trkpt>
      <trkpt lat="45.65236" lon="6.81124">
        <ele>2008.1</ele>
        <time>2011-03-27T10:27:55Z</time>
      </trkpt>
      <trkpt lat="45.65229" lon="6.81115">
        <ele>2006.4</ele>
        <time>2011-03-27T10:27:56Z</time>
      </trkpt>
      <trkpt lat="45.65222" lon="6.81108">
        <ele>2004.8</ele>
        <time>2011-03-27T10:27:57Z</time>
      </trkpt>
      <trkpt lat="45.65218" lon="6.81102">
        <ele>2003.4</ele>
        <time>2011-03-27T10:27:58Z</time>
      </trkpt>
      <trkpt lat="45.65216" lon="6.81098">
        <ele>2001.3</ele>
        <time>2011-03-27T10:27:59Z</time>
      </trkpt>
      <trkpt lat="45.6521" lon="6.81089">
        <ele>1998.6</ele>
        <time>2011-03-27T10:28:00Z</time>
      </trkpt>
      <trkpt lat="45.65204" lon="6.81082">
        <ele>1997.8</ele>
        <time>2011-03-27T10:28:01Z</time>
      </trkpt>
      <trkpt lat="45.65197" lon="6.81076">
        <ele>1997.6</ele>
        <time>2011-03-27T10:28:02Z</time>
      </trkpt>
      <trkpt lat="45.6519" lon="6.81083">
        <ele>1996.5</ele>
        <time>2011-03-27T10:28:07Z</time>
      </trkpt>
      <trkpt lat="45.6519" lon="6.81084">
        <ele>1996.5</ele>
        <time>2011-03-27T10:28:08Z</time>
      </trkpt>
      <trkpt lat="45.6519" lon="6.81105">
        <ele>1994.7</ele>
        <time>2011-03-27T10:28:25Z</time>
      </trkpt>
      <trkpt lat="45.6519" lon="6.81111">
        <ele>1994.2</ele>
        <time>2011-03-27T10:28:26Z</time>
      </trkpt>
      <trkpt lat="45.65188" lon="6.81118">
        <ele>1993.4</ele>
        <time>2011-03-27T10:28:27Z</time>
      </trkpt>
      <trkpt lat="45.65183" lon="6.81129">
        <ele>1992.8</ele>
        <time>2011-03-27T10:28:29Z</time>
      </trkpt>
      <trkpt lat="45.65177" lon="6.81132">
        <ele>1991.9</ele>
        <time>2011-03-27T10:28:31Z</time>
      </trkpt>
      <trkpt lat="45.65182" lon="6.81122">
        <ele>1988.7</ele>
        <time>2011-03-27T10:28:40Z</time>
      </trkpt>
      <trkpt lat="45.65189" lon="6.81114">
        <ele>1988.1</ele>
        <time>2011-03-27T10:28:46Z</time>
      </trkpt>
      <trkpt lat="45.65197" lon="6.81112">
        <ele>1987.8</ele>
        <time>2011-03-27T10:28:56Z</time>
      </trkpt>
      <trkpt lat="45.65205" lon="6.81106">
        <ele>1987.6</ele>
        <time>2011-03-27T10:28:59Z</time>
      </trkpt>
      <trkpt lat="45.65211" lon="6.81098">
        <ele>1986.4</ele>
        <time>2011-03-27T10:29:02Z</time>
      </trkpt>
      <trkpt lat="45.65202" lon="6.81097">
        <ele>1986.5</ele>
        <time>2011-03-27T10:29:13Z</time>
      </trkpt>
      <trkpt lat="45.65201" lon="6.81097">
        <ele>1986.5</ele>
        <time>2011-03-27T10:29:14Z</time>
      </trkpt>
      <trkpt lat="45.65186" lon="6.81102">
        <ele>1986</ele>
        <time>2011-03-27T10:29:34Z</time>
      </trkpt>
      <trkpt lat="45.65184" lon="6.8111">
        <ele>1985.6</ele>
        <time>2011-03-27T10:29:36Z</time>
      </trkpt>
      <trkpt lat="45.65179" lon="6.81114">
        <ele>1985.5</ele>
        <time>2011-03-27T10:29:37Z</time>
      </trkpt>
      <trkpt lat="45.65173" lon="6.81121">
        <ele>1984.7</ele>
        <time>2011-03-27T10:29:39Z</time>
      </trkpt>
      <trkpt lat="45.65168" lon="6.81119">
        <ele>1984.1</ele>
        <time>2011-03-27T10:29:41Z</time>
      </trkpt>
      <trkpt lat="45.65164" lon="6.8111">
        <ele>1982.8</ele>
        <time>2011-03-27T10:29:43Z</time>
      </trkpt>
      <trkpt lat="45.65163" lon="6.811">
        <ele>1981.4</ele>
        <time>2011-03-27T10:29:45Z</time>
      </trkpt>
      <trkpt lat="45.65165" lon="6.81089">
        <ele>1980.1</ele>
        <time>2011-03-27T10:29:47Z</time>
      </trkpt>
      <trkpt lat="45.65165" lon="6.81081">
        <ele>1978.4</ele>
        <time>2011-03-27T10:29:48Z</time>
      </trkpt>
      <trkpt lat="45.65162" lon="6.81074">
        <ele>1977.8</ele>
        <time>2011-03-27T10:29:49Z</time>
      </trkpt>
      <trkpt lat="45.65158" lon="6.81063">
        <ele>1976.6</ele>
        <time>2011-03-27T10:29:51Z</time>
      </trkpt>
      <trkpt lat="45.65154" lon="6.81053">
        <ele>1975.2</ele>
        <time>2011-03-27T10:29:53Z</time>
      </trkpt>
      <trkpt lat="45.65149" lon="6.81044">
        <ele>1973.1</ele>
        <time>2011-03-27T10:29:55Z</time>
      </trkpt>
      <trkpt lat="45.65146" lon="6.81036">
        <ele>1972.4</ele>
        <time>2011-03-27T10:29:56Z</time>
      </trkpt>
      <trkpt lat="45.6514" lon="6.81032">
        <ele>1970.6</ele>
        <time>2011-03-27T10:29:59Z</time>
      </trkpt>
      <trkpt lat="45.65133" lon="6.81037">
        <ele>1969.3</ele>
        <time>2011-03-27T10:30:01Z</time>
      </trkpt>
      <trkpt lat="45.6513" lon="6.81044">
        <ele>1968.7</ele>
        <time>2011-03-27T10:30:02Z</time>
      </trkpt>
      <trkpt lat="45.65127" lon="6.81053">
        <ele>1968.2</ele>
        <time>2011-03-27T10:30:03Z</time>
      </trkpt>
      <trkpt lat="45.65123" lon="6.81059">
        <ele>1967.4</ele>
        <time>2011-03-27T10:30:04Z</time>
      </trkpt>
      <trkpt lat="45.65118" lon="6.81065">
        <ele>1966.6</ele>
        <time>2011-03-27T10:30:05Z</time>
      </trkpt>
      <trkpt lat="45.65115" lon="6.81072">
        <ele>1965.7</ele>
        <time>2011-03-27T10:30:06Z</time>
      </trkpt>
      <trkpt lat="45.65111" lon="6.81078">
        <ele>1965</ele>
        <time>2011-03-27T10:30:07Z</time>
      </trkpt>
      <trkpt lat="45.65107" lon="6.81084">
        <ele>1963.8</ele>
        <time>2011-03-27T10:30:08Z</time>
      </trkpt>
      <trkpt lat="45.65099" lon="6.81087">
        <ele>1961.8</ele>
        <time>2011-03-27T10:30:11Z</time>
      </trkpt>
      <trkpt lat="45.65097" lon="6.81083">
        <ele>1961.2</ele>
        <time>2011-03-27T10:30:12Z</time>
      </trkpt>
      <trkpt lat="45.65095" lon="6.81075">
        <ele>1960.8</ele>
        <time>2011-03-27T10:30:13Z</time>
      </trkpt>
      <trkpt lat="45.65093" lon="6.81069">
        <ele>1960.3</ele>
        <time>2011-03-27T10:30:14Z</time>
      </trkpt>
      <trkpt lat="45.6509" lon="6.81064">
        <ele>1959.3</ele>
        <time>2011-03-27T10:30:15Z</time>
      </trkpt>
      <trkpt lat="45.65088" lon="6.81055">
        <ele>1959.3</ele>
        <time>2011-03-27T10:30:16Z</time>
      </trkpt>
      <trkpt lat="45.65085" lon="6.81047">
        <ele>1957.3</ele>
        <time>2011-03-27T10:30:17Z</time>
      </trkpt>
      <trkpt lat="45.65082" lon="6.81039">
        <ele>1956.1</ele>
        <time>2011-03-27T10:30:18Z</time>
      </trkpt>
      <trkpt lat="45.65077" lon="6.81031">
        <ele>1954.8</ele>
        <time>2011-03-27T10:30:19Z</time>
      </trkpt>
      <trkpt lat="45.65072" lon="6.81023">
        <ele>1953.1</ele>
        <time>2011-03-27T10:30:20Z</time>
      </trkpt>
      <trkpt lat="45.65063" lon="6.81017">
        <ele>1952.2</ele>
        <time>2011-03-27T10:30:21Z</time>
      </trkpt>
      <trkpt lat="45.65057" lon="6.81017">
        <ele>1951.5</ele>
        <time>2011-03-27T10:30:22Z</time>
      </trkpt>
      <trkpt lat="45.65051" lon="6.81018">
        <ele>1950.9</ele>
        <time>2011-03-27T10:30:23Z</time>
      </trkpt>
      <trkpt lat="45.65043" lon="6.8102">
        <ele>1949.2</ele>
        <time>2011-03-27T10:30:24Z</time>
      </trkpt>
      <trkpt lat="45.65035" lon="6.81022">
        <ele>1949</ele>
        <time>2011-03-27T10:30:25Z</time>
      </trkpt>
      <trkpt lat="45.65027" lon="6.81023">
        <ele>1946.4</ele>
        <time>2011-03-27T10:30:26Z</time>
      </trkpt>
      <trkpt lat="45.65019" lon="6.81025">
        <ele>1944.6</ele>
        <time>2011-03-27T10:30:27Z</time>
      </trkpt>
      <trkpt lat="45.65012" lon="6.81027">
        <ele>1943.2</ele>
        <time>2011-03-27T10:30:28Z</time>
      </trkpt>
      <trkpt lat="45.65006" lon="6.8103">
        <ele>1942</ele>
        <time>2011-03-27T10:30:29Z</time>
      </trkpt>
      <trkpt lat="45.64998" lon="6.81027">
        <ele>1939</ele>
        <time>2011-03-27T10:30:31Z</time>
      </trkpt>
      <trkpt lat="45.64993" lon="6.81025">
        <ele>1937.7</ele>
        <time>2011-03-27T10:30:32Z</time>
      </trkpt>
      <trkpt lat="45.64988" lon="6.81026">
        <ele>1936.3</ele>
        <time>2011-03-27T10:30:33Z</time>
      </trkpt>
      <trkpt lat="45.64983" lon="6.81023">
        <ele>1934.6</ele>
        <time>2011-03-27T10:30:34Z</time>
      </trkpt>
      <trkpt lat="45.64979" lon="6.81019">
        <ele>1933</ele>
        <time>2011-03-27T10:30:35Z</time>
      </trkpt>
      <trkpt lat="45.64974" lon="6.81013">
        <ele>1931.7</ele>
        <time>2011-03-27T10:30:36Z</time>
      </trkpt>
      <trkpt lat="45.64969" lon="6.81006">
        <ele>1930.1</ele>
        <time>2011-03-27T10:30:37Z</time>
      </trkpt>
      <trkpt lat="45.64964" lon="6.81004">
        <ele>1928.9</ele>
        <time>2011-03-27T10:30:38Z</time>
      </trkpt>
      <trkpt lat="45.64957" lon="6.81012">
        <ele>1926.5</ele>
        <time>2011-03-27T10:30:41Z</time>
      </trkpt>
      <trkpt lat="45.64953" lon="6.81005">
        <ele>1924.2</ele>
        <time>2011-03-27T10:30:44Z</time>
      </trkpt>
      <trkpt lat="45.64949" lon="6.80997">
        <ele>1923.4</ele>
        <time>2011-03-27T10:30:46Z</time>
      </trkpt>
      <trkpt lat="45.64945" lon="6.80992">
        <ele>1922.8</ele>
        <time>2011-03-27T10:30:47Z</time>
      </trkpt>
      <trkpt lat="45.6494" lon="6.80984">
        <ele>1922.2</ele>
        <time>2011-03-27T10:30:48Z</time>
      </trkpt>
      <trkpt lat="45.64937" lon="6.80977">
        <ele>1921.1</ele>
        <time>2011-03-27T10:30:49Z</time>
      </trkpt>
      <trkpt lat="45.64934" lon="6.8097">
        <ele>1920</ele>
        <time>2011-03-27T10:30:50Z</time>
      </trkpt>
      <trkpt lat="45.6493" lon="6.80961">
        <ele>1919.1</ele>
        <time>2011-03-27T10:30:51Z</time>
      </trkpt>
      <trkpt lat="45.64924" lon="6.80953">
        <ele>1917.4</ele>
        <time>2011-03-27T10:30:52Z</time>
      </trkpt>
      <trkpt lat="45.6492" lon="6.80946">
        <ele>1916.4</ele>
        <time>2011-03-27T10:30:53Z</time>
      </trkpt>
      <trkpt lat="45.64914" lon="6.80938">
        <ele>1915.6</ele>
        <time>2011-03-27T10:30:54Z</time>
      </trkpt>
      <trkpt lat="45.64907" lon="6.8093">
        <ele>1914.5</ele>
        <time>2011-03-27T10:30:55Z</time>
      </trkpt>
      <trkpt lat="45.64898" lon="6.80926">
        <ele>1913.8</ele>
        <time>2011-03-27T10:30:56Z</time>
      </trkpt>
      <trkpt lat="45.64892" lon="6.80922">
        <ele>1913</ele>
        <time>2011-03-27T10:30:57Z</time>
      </trkpt>
      <trkpt lat="45.64887" lon="6.80911">
        <ele>1912.5</ele>
        <time>2011-03-27T10:30:59Z</time>
      </trkpt>
      <trkpt lat="45.64886" lon="6.80903">
        <ele>1911.9</ele>
        <time>2011-03-27T10:31:00Z</time>
      </trkpt>
      <trkpt lat="45.64884" lon="6.80896">
        <ele>1911.3</ele>
        <time>2011-03-27T10:31:01Z</time>
      </trkpt>
      <trkpt lat="45.6488" lon="6.80888">
        <ele>1910.9</ele>
        <time>2011-03-27T10:31:03Z</time>
      </trkpt>
      <trkpt lat="45.64872" lon="6.80884">
        <ele>1909.5</ele>
        <time>2011-03-27T10:31:05Z</time>
      </trkpt>
      <trkpt lat="45.64868" lon="6.80881">
        <ele>1908.9</ele>
        <time>2011-03-27T10:31:06Z</time>
      </trkpt>
      <trkpt lat="45.64864" lon="6.80876">
        <ele>1908.2</ele>
        <time>2011-03-27T10:31:07Z</time>
      </trkpt>
      <trkpt lat="45.64861" lon="6.80869">
        <ele>1907.4</ele>
        <time>2011-03-27T10:31:08Z</time>
      </trkpt>
      <trkpt lat="45.64859" lon="6.80861">
        <ele>1906.2</ele>
        <time>2011-03-27T10:31:09Z</time>
      </trkpt>
      <trkpt lat="45.64855" lon="6.80855">
        <ele>1904.9</ele>
        <time>2011-03-27T10:31:10Z</time>
      </trkpt>
      <trkpt lat="45.6485" lon="6.80851">
        <ele>1903.8</ele>
        <time>2011-03-27T10:31:11Z</time>
      </trkpt>
      <trkpt lat="45.64844" lon="6.8085">
        <ele>1903.1</ele>
        <time>2011-03-27T10:31:12Z</time>
      </trkpt>
      <trkpt lat="45.64837" lon="6.80845">
        <ele>1902.6</ele>
        <time>2011-03-27T10:31:13Z</time>
      </trkpt>
      <trkpt lat="45.64832" lon="6.80841">
        <ele>1902.5</ele>
        <time>2011-03-27T10:31:14Z</time>
      </trkpt>
      <trkpt lat="45.64826" lon="6.80831">
        <ele>1901.8</ele>
        <time>2011-03-27T10:31:16Z</time>
      </trkpt>
      <trkpt lat="45.64834" lon="6.80826">
        <ele>1901.8</ele>
        <time>2011-03-27T10:31:17Z</time>
      </trkpt>
      <trkpt lat="45.64835" lon="6.80818">
        <ele>1900.6</ele>
        <time>2011-03-27T10:31:18Z</time>
      </trkpt>
      <trkpt lat="45.64835" lon="6.8081">
        <ele>1900.1</ele>
        <time>2011-03-27T10:31:19Z</time>
      </trkpt>
      <trkpt lat="45.64834" lon="6.80804">
        <ele>1899.3</ele>
        <time>2011-03-27T10:31:20Z</time>
      </trkpt>
      <trkpt lat="45.64831" lon="6.80795">
        <ele>1898.3</ele>
        <time>2011-03-27T10:31:21Z</time>
      </trkpt>
      <trkpt lat="45.64828" lon="6.80788">
        <ele>1897.6</ele>
        <time>2011-03-27T10:31:22Z</time>
      </trkpt>
      <trkpt lat="45.64825" lon="6.80781">
        <ele>1897.1</ele>
        <time>2011-03-27T10:31:23Z</time>
      </trkpt>
      <trkpt lat="45.64821" lon="6.80776">
        <ele>1896.6</ele>
        <time>2011-03-27T10:31:24Z</time>
      </trkpt>
      <trkpt lat="45.64817" lon="6.8077">
        <ele>1896</ele>
        <time>2011-03-27T10:31:25Z</time>
      </trkpt>
      <trkpt lat="45.64812" lon="6.80764">
        <ele>1895.7</ele>
        <time>2011-03-27T10:31:26Z</time>
      </trkpt>
      <trkpt lat="45.64806" lon="6.80756">
        <ele>1895.3</ele>
        <time>2011-03-27T10:31:28Z</time>
      </trkpt>
      <trkpt lat="45.64803" lon="6.80744">
        <ele>1894.6</ele>
        <time>2011-03-27T10:31:30Z</time>
      </trkpt>
      <trkpt lat="45.64798" lon="6.80735">
        <ele>1893.4</ele>
        <time>2011-03-27T10:31:32Z</time>
      </trkpt>
      <trkpt lat="45.64796" lon="6.80731">
        <ele>1892.5</ele>
        <time>2011-03-27T10:31:33Z</time>
      </trkpt>
      <trkpt lat="45.64793" lon="6.80724">
        <ele>1891</ele>
        <time>2011-03-27T10:31:34Z</time>
      </trkpt>
      <trkpt lat="45.6479" lon="6.80713">
        <ele>1890.3</ele>
        <time>2011-03-27T10:31:36Z</time>
      </trkpt>
      <trkpt lat="45.64783" lon="6.80706">
        <ele>1889.8</ele>
        <time>2011-03-27T10:31:38Z</time>
      </trkpt>
      <trkpt lat="45.64774" lon="6.80702">
        <ele>1889.2</ele>
        <time>2011-03-27T10:31:42Z</time>
      </trkpt>
      <trkpt lat="45.64767" lon="6.80694">
        <ele>1887.8</ele>
        <time>2011-03-27T10:31:45Z</time>
      </trkpt>
      <trkpt lat="45.64764" lon="6.8069">
        <ele>1887.3</ele>
        <time>2011-03-27T10:31:46Z</time>
      </trkpt>
      <trkpt lat="45.64759" lon="6.80687">
        <ele>1886.7</ele>
        <time>2011-03-27T10:31:47Z</time>
      </trkpt>
      <trkpt lat="45.64751" lon="6.80683">
        <ele>1885.4</ele>
        <time>2011-03-27T10:31:49Z</time>
      </trkpt>
      <trkpt lat="45.64757" lon="6.80675">
        <ele>1883</ele>
        <time>2011-03-27T10:31:57Z</time>
      </trkpt>
      <trkpt lat="45.64751" lon="6.80665">
        <ele>1882.1</ele>
        <time>2011-03-27T10:32:00Z</time>
      </trkpt>
      <trkpt lat="45.64745" lon="6.80665">
        <ele>1880.6</ele>
        <time>2011-03-27T10:32:01Z</time>
      </trkpt>
      <trkpt lat="45.6474" lon="6.80663">
        <ele>1880.8</ele>
        <time>2011-03-27T10:32:02Z</time>
      </trkpt>
      <trkpt lat="45.64732" lon="6.80658">
        <ele>1880.3</ele>
        <time>2011-03-27T10:32:04Z</time>
      </trkpt>
      <trkpt lat="45.64725" lon="6.80654">
        <ele>1879.6</ele>
        <time>2011-03-27T10:32:06Z</time>
      </trkpt>
      <trkpt lat="45.64717" lon="6.80651">
        <ele>1878.8</ele>
        <time>2011-03-27T10:32:08Z</time>
      </trkpt>
      <trkpt lat="45.64711" lon="6.80645">
        <ele>1878.7</ele>
        <time>2011-03-27T10:32:11Z</time>
      </trkpt>
      <trkpt lat="45.64705" lon="6.80642">
        <ele>1877.6</ele>
        <time>2011-03-27T10:32:13Z</time>
      </trkpt>
      <trkpt lat="45.64699" lon="6.8064">
        <ele>1877.2</ele>
        <time>2011-03-27T10:32:15Z</time>
      </trkpt>
      <trkpt lat="45.64691" lon="6.80635">
        <ele>1876.3</ele>
        <time>2011-03-27T10:32:17Z</time>
      </trkpt>
      <trkpt lat="45.64688" lon="6.80632">
        <ele>1876.3</ele>
        <time>2011-03-27T10:32:18Z</time>
      </trkpt>
      <trkpt lat="45.64681" lon="6.80619">
        <ele>1874.5</ele>
        <time>2011-03-27T10:32:21Z</time>
      </trkpt>
      <trkpt lat="45.64679" lon="6.80608">
        <ele>1873.7</ele>
        <time>2011-03-27T10:32:23Z</time>
      </trkpt>
      <trkpt lat="45.64673" lon="6.80603">
        <ele>1872.9</ele>
        <time>2011-03-27T10:32:25Z</time>
      </trkpt>
      <trkpt lat="45.64668" lon="6.80594">
        <ele>1872</ele>
        <time>2011-03-27T10:32:28Z</time>
      </trkpt>
      <trkpt lat="45.64662" lon="6.80584">
        <ele>1871.2</ele>
        <time>2011-03-27T10:32:31Z</time>
      </trkpt>
      <trkpt lat="45.64657" lon="6.80575">
        <ele>1869.6</ele>
        <time>2011-03-27T10:32:44Z</time>
      </trkpt>
      <trkpt lat="45.64652" lon="6.80567">
        <ele>1868.8</ele>
        <time>2011-03-27T10:32:48Z</time>
      </trkpt>
      <trkpt lat="45.64646" lon="6.8056">
        <ele>1868.2</ele>
        <time>2011-03-27T10:32:51Z</time>
      </trkpt>
      <trkpt lat="45.64639" lon="6.80552">
        <ele>1867.6</ele>
        <time>2011-03-27T10:32:54Z</time>
      </trkpt>
      <trkpt lat="45.64634" lon="6.80544">
        <ele>1867.2</ele>
        <time>2011-03-27T10:32:57Z</time>
      </trkpt>
      <trkpt lat="45.64631" lon="6.80535">
        <ele>1866.7</ele>
        <time>2011-03-27T10:33:00Z</time>
      </trkpt>
      <trkpt lat="45.64627" lon="6.80526">
        <ele>1865.8</ele>
        <time>2011-03-27T10:33:03Z</time>
      </trkpt>
      <trkpt lat="45.64624" lon="6.80517">
        <ele>1864.9</ele>
        <time>2011-03-27T10:33:06Z</time>
      </trkpt>
      <trkpt lat="45.64619" lon="6.80507">
        <ele>1864.3</ele>
        <time>2011-03-27T10:33:09Z</time>
      </trkpt>
      <trkpt lat="45.64615" lon="6.80499">
        <ele>1863.3</ele>
        <time>2011-03-27T10:33:12Z</time>
      </trkpt>
      <trkpt lat="45.6461" lon="6.80488">
        <ele>1863</ele>
        <time>2011-03-27T10:33:15Z</time>
      </trkpt>
      <trkpt lat="45.64608" lon="6.8048">
        <ele>1862.8</ele>
        <time>2011-03-27T10:33:17Z</time>
      </trkpt>
      <trkpt lat="45.64605" lon="6.80469">
        <ele>1861.9</ele>
        <time>2011-03-27T10:33:19Z</time>
      </trkpt>
      <trkpt lat="45.64605" lon="6.80463">
        <ele>1861.9</ele>
        <time>2011-03-27T10:33:20Z</time>
      </trkpt>
      <trkpt lat="45.646" lon="6.8045">
        <ele>1860.4</ele>
        <time>2011-03-27T10:33:23Z</time>
      </trkpt>
      <trkpt lat="45.64597" lon="6.80442">
        <ele>1860</ele>
        <time>2011-03-27T10:33:25Z</time>
      </trkpt>
      <trkpt lat="45.64594" lon="6.80434">
        <ele>1859.4</ele>
        <time>2011-03-27T10:33:27Z</time>
      </trkpt>
      <trkpt lat="45.64592" lon="6.80424">
        <ele>1858.6</ele>
        <time>2011-03-27T10:33:29Z</time>
      </trkpt>
      <trkpt lat="45.64591" lon="6.80414">
        <ele>1858.1</ele>
        <time>2011-03-27T10:33:31Z</time>
      </trkpt>
      <trkpt lat="45.64592" lon="6.80403">
        <ele>1857.2</ele>
        <time>2011-03-27T10:33:34Z</time>
      </trkpt>
      <trkpt lat="45.6459" lon="6.80391">
        <ele>1857.3</ele>
        <time>2011-03-27T10:33:41Z</time>
      </trkpt>
      <trkpt lat="45.64585" lon="6.80385">
        <ele>1856.3</ele>
        <time>2011-03-27T10:33:45Z</time>
      </trkpt>
      <trkpt lat="45.6458" lon="6.8038">
        <ele>1856</ele>
        <time>2011-03-27T10:33:47Z</time>
      </trkpt>
      <trkpt lat="45.64575" lon="6.80372">
        <ele>1855.2</ele>
        <time>2011-03-27T10:33:49Z</time>
      </trkpt>
      <trkpt lat="45.64569" lon="6.80363">
        <ele>1854.3</ele>
        <time>2011-03-27T10:33:51Z</time>
      </trkpt>
      <trkpt lat="45.64565" lon="6.80355">
        <ele>1853.9</ele>
        <time>2011-03-27T10:33:59Z</time>
      </trkpt>
      <trkpt lat="45.64563" lon="6.80346">
        <ele>1853</ele>
        <time>2011-03-27T10:34:02Z</time>
      </trkpt>
      <trkpt lat="45.64564" lon="6.80334">
        <ele>1851.9</ele>
        <time>2011-03-27T10:34:05Z</time>
      </trkpt>
      <trkpt lat="45.64564" lon="6.80322">
        <ele>1851.9</ele>
        <time>2011-03-27T10:34:08Z</time>
      </trkpt>
      <trkpt lat="45.64556" lon="6.80328">
        <ele>1850.2</ele>
        <time>2011-03-27T10:34:18Z</time>
      </trkpt>
      <trkpt lat="45.6455" lon="6.80336">
        <ele>1850.4</ele>
        <time>2011-03-27T10:34:22Z</time>
      </trkpt>
      <trkpt lat="45.64549" lon="6.80337">
        <ele>1850.4</ele>
        <time>2011-03-27T10:34:23Z</time>
      </trkpt>
      <trkpt lat="45.64538" lon="6.80351">
        <ele>1847.3</ele>
        <time>2011-03-27T10:34:33Z</time>
      </trkpt>
      <trkpt lat="45.64533" lon="6.80361">
        <ele>1845.6</ele>
        <time>2011-03-27T10:34:38Z</time>
      </trkpt>
      <trkpt lat="45.64528" lon="6.80369">
        <ele>1843.5</ele>
        <time>2011-03-27T10:34:42Z</time>
      </trkpt>
      <trkpt lat="45.64524" lon="6.80377">
        <ele>1841.9</ele>
        <time>2011-03-27T10:34:45Z</time>
      </trkpt>
      <trkpt lat="45.6452" lon="6.80385">
        <ele>1840</ele>
        <time>2011-03-27T10:34:48Z</time>
      </trkpt>
      <trkpt lat="45.64514" lon="6.8039">
        <ele>1835.1</ele>
        <time>2011-03-27T10:36:01Z</time>
      </trkpt>
      <trkpt lat="45.6451" lon="6.80389">
        <ele>1835.1</ele>
        <time>2011-03-27T10:36:02Z</time>
      </trkpt>
      <trkpt lat="45.64503" lon="6.80377">
        <ele>1835.2</ele>
        <time>2011-03-27T10:36:43Z</time>
      </trkpt>
      <trkpt lat="45.64499" lon="6.8037">
        <ele>1834.9</ele>
        <time>2011-03-27T10:36:45Z</time>
      </trkpt>
      <trkpt lat="45.64495" lon="6.80362">
        <ele>1834.5</ele>
        <time>2011-03-27T10:36:47Z</time>
      </trkpt>
      <trkpt lat="45.6449" lon="6.80352">
        <ele>1833.8</ele>
        <time>2011-03-27T10:36:50Z</time>
      </trkpt>
      <trkpt lat="45.64485" lon="6.80345">
        <ele>1833</ele>
        <time>2011-03-27T10:36:54Z</time>
      </trkpt>
      <trkpt lat="45.64479" lon="6.80339">
        <ele>1832.2</ele>
        <time>2011-03-27T10:36:57Z</time>
      </trkpt>
      <trkpt lat="45.64474" lon="6.80332">
        <ele>1831.3</ele>
        <time>2011-03-27T10:36:59Z</time>
      </trkpt>
      <trkpt lat="45.64472" lon="6.80321">
        <ele>1830.2</ele>
        <time>2011-03-27T10:37:01Z</time>
      </trkpt>
      <trkpt lat="45.6447" lon="6.80314">
        <ele>1829.1</ele>
        <time>2011-03-27T10:37:02Z</time>
      </trkpt>
      <trkpt lat="45.64466" lon="6.80306">
        <ele>1829.1</ele>
        <time>2011-03-27T10:37:03Z</time>
      </trkpt>
      <trkpt lat="45.64464" lon="6.80298">
        <ele>1827.6</ele>
        <time>2011-03-27T10:37:04Z</time>
      </trkpt>
      <trkpt lat="45.64464" lon="6.8029">
        <ele>1825.4</ele>
        <time>2011-03-27T10:37:05Z</time>
      </trkpt>
      <trkpt lat="45.64465" lon="6.80278">
        <ele>1824.9</ele>
        <time>2011-03-27T10:37:06Z</time>
      </trkpt>
      <trkpt lat="45.64466" lon="6.80268">
        <ele>1824</ele>
        <time>2011-03-27T10:37:07Z</time>
      </trkpt>
      <trkpt lat="45.64462" lon="6.80257">
        <ele>1818.9</ele>
        <time>2011-03-27T10:37:16Z</time>
      </trkpt>
      <trkpt lat="45.6446" lon="6.80249">
        <ele>1816.7</ele>
        <time>2011-03-27T10:37:21Z</time>
      </trkpt>
      <trkpt lat="45.64452" lon="6.80244">
        <ele>1814.8</ele>
        <time>2011-03-27T10:37:23Z</time>
      </trkpt>
      <trkpt lat="45.64448" lon="6.80243">
        <ele>1814</ele>
        <time>2011-03-27T10:37:24Z</time>
      </trkpt>
      <trkpt lat="45.64443" lon="6.80239">
        <ele>1813.4</ele>
        <time>2011-03-27T10:37:25Z</time>
      </trkpt>
      <trkpt lat="45.64437" lon="6.80233">
        <ele>1813</ele>
        <time>2011-03-27T10:37:26Z</time>
      </trkpt>
      <trkpt lat="45.64431" lon="6.80228">
        <ele>1812.3</ele>
        <time>2011-03-27T10:37:27Z</time>
      </trkpt>
      <trkpt lat="45.64425" lon="6.80222">
        <ele>1811.5</ele>
        <time>2011-03-27T10:37:28Z</time>
      </trkpt>
      <trkpt lat="45.6442" lon="6.80217">
        <ele>1811.3</ele>
        <time>2011-03-27T10:37:29Z</time>
      </trkpt>
      <trkpt lat="45.64414" lon="6.80211">
        <ele>1811</ele>
        <time>2011-03-27T10:37:30Z</time>
      </trkpt>
      <trkpt lat="45.64409" lon="6.80205">
        <ele>1810.5</ele>
        <time>2011-03-27T10:37:31Z</time>
      </trkpt>
      <trkpt lat="45.64404" lon="6.802">
        <ele>1809.7</ele>
        <time>2011-03-27T10:37:32Z</time>
      </trkpt>
      <trkpt lat="45.64399" lon="6.80194">
        <ele>1809.3</ele>
        <time>2011-03-27T10:37:33Z</time>
      </trkpt>
      <trkpt lat="45.64395" lon="6.8019">
        <ele>1807.9</ele>
        <time>2011-03-27T10:37:34Z</time>
      </trkpt>
      <trkpt lat="45.64387" lon="6.80197">
        <ele>1806.7</ele>
        <time>2011-03-27T10:37:53Z</time>
      </trkpt>
      <trkpt lat="45.64388" lon="6.80187">
        <ele>1805.5</ele>
        <time>2011-03-27T10:38:08Z</time>
      </trkpt>
      <trkpt lat="45.64388" lon="6.80182">
        <ele>1805.5</ele>
        <time>2011-03-27T10:38:09Z</time>
      </trkpt>
      <trkpt lat="45.64381" lon="6.8017">
        <ele>1802.7</ele>
        <time>2011-03-27T10:38:16Z</time>
      </trkpt>
      <trkpt lat="45.6438" lon="6.80161">
        <ele>1801.4</ele>
        <time>2011-03-27T10:38:19Z</time>
      </trkpt>
      <trkpt lat="45.64379" lon="6.80149">
        <ele>1800.7</ele>
        <time>2011-03-27T10:38:21Z</time>
      </trkpt>
      <trkpt lat="45.6438" lon="6.80139">
        <ele>1800.3</ele>
        <time>2011-03-27T10:38:23Z</time>
      </trkpt>
      <trkpt lat="45.64378" lon="6.80129">
        <ele>1799.8</ele>
        <time>2011-03-27T10:38:26Z</time>
      </trkpt>
      <trkpt lat="45.64373" lon="6.80137">
        <ele>1798.2</ele>
        <time>2011-03-27T10:38:31Z</time>
      </trkpt>
      <trkpt lat="45.6437" lon="6.80149">
        <ele>1795</ele>
        <time>2011-03-27T10:38:59Z</time>
      </trkpt>
      <trkpt lat="45.64367" lon="6.80138">
        <ele>1797</ele>
        <time>2011-03-27T10:39:19Z</time>
      </trkpt>
      <trkpt lat="45.64367" lon="6.80135">
        <ele>1797</ele>
        <time>2011-03-27T10:39:20Z</time>
      </trkpt>
      <trkpt lat="45.64362" lon="6.80119">
        <ele>1793.6</ele>
        <time>2011-03-27T10:39:35Z</time>
      </trkpt>
      <trkpt lat="45.64369" lon="6.80124">
        <ele>1794.2</ele>
        <time>2011-03-27T10:39:46Z</time>
      </trkpt>
      <trkpt lat="45.64362" lon="6.8013">
        <ele>1863.8</ele>
        <time>2011-03-27T10:41:29Z</time>
      </trkpt>
      <trkpt lat="45.64361" lon="6.8013">
        <ele>1863.8</ele>
        <time>2011-03-27T10:41:30Z</time>
      </trkpt>
      <trkpt lat="45.6436" lon="6.80123">
        <ele>1861.5</ele>
        <time>2011-03-27T10:42:33Z</time>
      </trkpt>
      <trkpt lat="45.64358" lon="6.80123">
        <ele>1861.5</ele>
        <time>2011-03-27T10:42:34Z</time>
      </trkpt>
      <trkpt lat="45.64349" lon="6.80118">
        <ele>1860.6</ele>
        <time>2011-03-27T10:43:40Z</time>
      </trkpt>
      <trkpt lat="45.64346" lon="6.80111">
        <ele>1859.9</ele>
        <time>2011-03-27T10:43:41Z</time>
      </trkpt>
      <trkpt lat="45.64342" lon="6.80105">
        <ele>1859.6</ele>
        <time>2011-03-27T10:43:42Z</time>
      </trkpt>
      <trkpt lat="45.64338" lon="6.80101">
        <ele>1859.1</ele>
        <time>2011-03-27T10:43:43Z</time>
      </trkpt>
      <trkpt lat="45.64333" lon="6.80096">
        <ele>1858.4</ele>
        <time>2011-03-27T10:43:44Z</time>
      </trkpt>
      <trkpt lat="45.64329" lon="6.80092">
        <ele>1857.9</ele>
        <time>2011-03-27T10:43:45Z</time>
      </trkpt>
      <trkpt lat="45.64325" lon="6.80087">
        <ele>1857.3</ele>
        <time>2011-03-27T10:43:46Z</time>
      </trkpt>
      <trkpt lat="45.64321" lon="6.80083">
        <ele>1856.9</ele>
        <time>2011-03-27T10:43:47Z</time>
      </trkpt>
      <trkpt lat="45.64317" lon="6.80079">
        <ele>1856.6</ele>
        <time>2011-03-27T10:43:48Z</time>
      </trkpt>
      <trkpt lat="45.64313" lon="6.80075">
        <ele>1856.3</ele>
        <time>2011-03-27T10:43:49Z</time>
      </trkpt>
      <trkpt lat="45.64305" lon="6.80068">
        <ele>1855.3</ele>
        <time>2011-03-27T10:43:51Z</time>
      </trkpt>
      <trkpt lat="45.64299" lon="6.80064">
        <ele>1854.6</ele>
        <time>2011-03-27T10:43:53Z</time>
      </trkpt>
      <trkpt lat="45.64295" lon="6.80053">
        <ele>1853.6</ele>
        <time>2011-03-27T10:43:57Z</time>
      </trkpt>
      <trkpt lat="45.64288" lon="6.80047">
        <ele>1852.7</ele>
        <time>2011-03-27T10:44:02Z</time>
      </trkpt>
      <trkpt lat="45.6428" lon="6.80054">
        <ele>1850.5</ele>
        <time>2011-03-27T10:44:15Z</time>
      </trkpt>
      <trkpt lat="45.64271" lon="6.80054">
        <ele>1847.7</ele>
        <time>2011-03-27T10:44:42Z</time>
      </trkpt>
      <trkpt lat="45.6427" lon="6.80054">
        <ele>1847.7</ele>
        <time>2011-03-27T10:44:43Z</time>
      </trkpt>
      <trkpt lat="45.6426" lon="6.80041">
        <ele>1846.3</ele>
        <time>2011-03-27T10:44:49Z</time>
      </trkpt>
      <trkpt lat="45.64256" lon="6.80033">
        <ele>1845.1</ele>
        <time>2011-03-27T10:44:51Z</time>
      </trkpt>
      <trkpt lat="45.6425" lon="6.80024">
        <ele>1844.4</ele>
        <time>2011-03-27T10:44:53Z</time>
      </trkpt>
      <trkpt lat="45.64247" lon="6.80019">
        <ele>1843.9</ele>
        <time>2011-03-27T10:44:54Z</time>
      </trkpt>
      <trkpt lat="45.64244" lon="6.80014">
        <ele>1843.5</ele>
        <time>2011-03-27T10:44:55Z</time>
      </trkpt>
      <trkpt lat="45.64239" lon="6.80008">
        <ele>1842.6</ele>
        <time>2011-03-27T10:44:56Z</time>
      </trkpt>
      <trkpt lat="45.64236" lon="6.80003">
        <ele>1842.1</ele>
        <time>2011-03-27T10:44:57Z</time>
      </trkpt>
      <trkpt lat="45.64233" lon="6.79997">
        <ele>1841.6</ele>
        <time>2011-03-27T10:44:58Z</time>
      </trkpt>
      <trkpt lat="45.64227" lon="6.79988">
        <ele>1840.7</ele>
        <time>2011-03-27T10:45:00Z</time>
      </trkpt>
      <trkpt lat="45.6422" lon="6.79982">
        <ele>1839.8</ele>
        <time>2011-03-27T10:45:02Z</time>
      </trkpt>
      <trkpt lat="45.64213" lon="6.79976">
        <ele>1838.8</ele>
        <time>2011-03-27T10:45:04Z</time>
      </trkpt>
      <trkpt lat="45.64207" lon="6.79971">
        <ele>1837.6</ele>
        <time>2011-03-27T10:45:06Z</time>
      </trkpt>
      <trkpt lat="45.64202" lon="6.79966">
        <ele>1836.4</ele>
        <time>2011-03-27T10:45:08Z</time>
      </trkpt>
      <trkpt lat="45.64197" lon="6.79962">
        <ele>1836.5</ele>
        <time>2011-03-27T10:45:10Z</time>
      </trkpt>
      <trkpt lat="45.6419" lon="6.79957">
        <ele>1835.2</ele>
        <time>2011-03-27T10:45:13Z</time>
      </trkpt>
      <trkpt lat="45.64183" lon="6.7995">
        <ele>1836.7</ele>
        <time>2011-03-27T10:45:16Z</time>
      </trkpt>
      <trkpt lat="45.64177" lon="6.79944">
        <ele>1836.6</ele>
        <time>2011-03-27T10:45:18Z</time>
      </trkpt>
      <trkpt lat="45.64171" lon="6.79935">
        <ele>1835.4</ele>
        <time>2011-03-27T10:45:21Z</time>
      </trkpt>
      <trkpt lat="45.64169" lon="6.79928">
        <ele>1834.4</ele>
        <time>2011-03-27T10:45:23Z</time>
      </trkpt>
      <trkpt lat="45.64166" lon="6.79918">
        <ele>1833.7</ele>
        <time>2011-03-27T10:45:25Z</time>
      </trkpt>
      <trkpt lat="45.64162" lon="6.79909">
        <ele>1832.6</ele>
        <time>2011-03-27T10:45:28Z</time>
      </trkpt>
      <trkpt lat="45.64155" lon="6.79902">
        <ele>1832.2</ele>
        <time>2011-03-27T10:45:31Z</time>
      </trkpt>
      <trkpt lat="45.64147" lon="6.79897">
        <ele>1832.4</ele>
        <time>2011-03-27T10:45:34Z</time>
      </trkpt>
      <trkpt lat="45.64141" lon="6.79888">
        <ele>1831.2</ele>
        <time>2011-03-27T10:45:40Z</time>
      </trkpt>
      <trkpt lat="45.64139" lon="6.79876">
        <ele>1829.7</ele>
        <time>2011-03-27T10:46:02Z</time>
      </trkpt>
      <trkpt lat="45.64138" lon="6.79875">
        <ele>1829.7</ele>
        <time>2011-03-27T10:46:03Z</time>
      </trkpt>
      <trkpt lat="45.6413" lon="6.79855">
        <ele>1827.5</ele>
        <time>2011-03-27T10:46:15Z</time>
      </trkpt>
      <trkpt lat="45.64127" lon="6.79843">
        <ele>1829.8</ele>
        <time>2011-03-27T10:46:24Z</time>
      </trkpt>
      <trkpt lat="45.64124" lon="6.79832">
        <ele>1829.2</ele>
        <time>2011-03-27T10:46:31Z</time>
      </trkpt>
      <trkpt lat="45.6412" lon="6.79821">
        <ele>1824.9</ele>
        <time>2011-03-27T10:46:40Z</time>
      </trkpt>
      <trkpt lat="45.64114" lon="6.79813">
        <ele>1824.6</ele>
        <time>2011-03-27T10:46:50Z</time>
      </trkpt>
      <trkpt lat="45.64111" lon="6.79802">
        <ele>1824.7</ele>
        <time>2011-03-27T10:47:03Z</time>
      </trkpt>
      <trkpt lat="45.64111" lon="6.79801">
        <ele>1824.7</ele>
        <time>2011-03-27T10:47:04Z</time>
      </trkpt>
      <trkpt lat="45.64104" lon="6.79779">
        <ele>1824.8</ele>
        <time>2011-03-27T10:48:08Z</time>
      </trkpt>
      <trkpt lat="45.64103" lon="6.79777">
        <ele>1824.8</ele>
        <time>2011-03-27T10:48:09Z</time>
      </trkpt>
      <trkpt lat="45.641" lon="6.7976">
        <ele>1822.5</ele>
        <time>2011-03-27T10:48:15Z</time>
      </trkpt>
      <trkpt lat="45.641" lon="6.7975">
        <ele>1821.6</ele>
        <time>2011-03-27T10:48:17Z</time>
      </trkpt>
      <trkpt lat="45.64096" lon="6.79741">
        <ele>1821.4</ele>
        <time>2011-03-27T10:48:19Z</time>
      </trkpt>
      <trkpt lat="45.64095" lon="6.79731">
        <ele>1820.1</ele>
        <time>2011-03-27T10:48:22Z</time>
      </trkpt>
      <trkpt lat="45.64094" lon="6.79719">
        <ele>1818</ele>
        <time>2011-03-27T10:48:25Z</time>
      </trkpt>
      <trkpt lat="45.64091" lon="6.79708">
        <ele>1816.9</ele>
        <time>2011-03-27T10:48:30Z</time>
      </trkpt>
      <trkpt lat="45.6409" lon="6.79697">
        <ele>1818.8</ele>
        <time>2011-03-27T10:48:39Z</time>
      </trkpt>
      <trkpt lat="45.64091" lon="6.79685">
        <ele>1817</ele>
        <time>2011-03-27T10:48:46Z</time>
      </trkpt>
      <trkpt lat="45.6409" lon="6.79674">
        <ele>1816.2</ele>
        <time>2011-03-27T10:48:52Z</time>
      </trkpt>
      <trkpt lat="45.6409" lon="6.79663">
        <ele>1815.3</ele>
        <time>2011-03-27T10:48:56Z</time>
      </trkpt>
      <trkpt lat="45.64093" lon="6.79652">
        <ele>1814.4</ele>
        <time>2011-03-27T10:48:59Z</time>
      </trkpt>
      <trkpt lat="45.64095" lon="6.79644">
        <ele>1813.8</ele>
        <time>2011-03-27T10:49:01Z</time>
      </trkpt>
      <trkpt lat="45.64092" lon="6.79633">
        <ele>1812.9</ele>
        <time>2011-03-27T10:49:04Z</time>
      </trkpt>
      <trkpt lat="45.64089" lon="6.79624">
        <ele>1812.3</ele>
        <time>2011-03-27T10:49:07Z</time>
      </trkpt>
      <trkpt lat="45.64093" lon="6.79613">
        <ele>1812.1</ele>
        <time>2011-03-27T10:49:10Z</time>
      </trkpt>
      <trkpt lat="45.64093" lon="6.7961">
        <ele>1812.1</ele>
        <time>2011-03-27T10:49:11Z</time>
      </trkpt>
      <trkpt lat="45.64094" lon="6.796">
        <ele>1810.8</ele>
        <time>2011-03-27T10:49:31Z</time>
      </trkpt>
      <trkpt lat="45.641" lon="6.79592">
        <ele>1810.2</ele>
        <time>2011-03-27T10:49:34Z</time>
      </trkpt>
      <trkpt lat="45.64101" lon="6.79581">
        <ele>1809.4</ele>
        <time>2011-03-27T10:49:36Z</time>
      </trkpt>
      <trkpt lat="45.641" lon="6.79574">
        <ele>1808.9</ele>
        <time>2011-03-27T10:49:37Z</time>
      </trkpt>
      <trkpt lat="45.64101" lon="6.79562">
        <ele>1808.2</ele>
        <time>2011-03-27T10:49:39Z</time>
      </trkpt>
      <trkpt lat="45.64102" lon="6.79551">
        <ele>1807.7</ele>
        <time>2011-03-27T10:49:42Z</time>
      </trkpt>
      <trkpt lat="45.64106" lon="6.79542">
        <ele>1806.9</ele>
        <time>2011-03-27T10:49:48Z</time>
      </trkpt>
      <trkpt lat="45.64113" lon="6.79535">
        <ele>1805.3</ele>
        <time>2011-03-27T10:49:54Z</time>
      </trkpt>
      <trkpt lat="45.64119" lon="6.79533">
        <ele>1805.7</ele>
        <time>2011-03-27T10:49:56Z</time>
      </trkpt>
      <trkpt lat="45.64127" lon="6.79528">
        <ele>1805.4</ele>
        <time>2011-03-27T10:50:02Z</time>
      </trkpt>
      <trkpt lat="45.64129" lon="6.79516">
        <ele>1804.4</ele>
        <time>2011-03-27T10:50:13Z</time>
      </trkpt>
      <trkpt lat="45.64129" lon="6.79514">
        <ele>1804.4</ele>
        <time>2011-03-27T10:50:14Z</time>
      </trkpt>
      <trkpt lat="45.64123" lon="6.79496">
        <ele>1803.4</ele>
        <time>2011-03-27T10:50:20Z</time>
      </trkpt>
      <trkpt lat="45.64121" lon="6.79484">
        <ele>1803.3</ele>
        <time>2011-03-27T10:50:23Z</time>
      </trkpt>
      <trkpt lat="45.64121" lon="6.79473">
        <ele>1803</ele>
        <time>2011-03-27T10:50:26Z</time>
      </trkpt>
      <trkpt lat="45.64121" lon="6.79463">
        <ele>1802.3</ele>
        <time>2011-03-27T10:50:29Z</time>
      </trkpt>
      <trkpt lat="45.64121" lon="6.79453">
        <ele>1801.9</ele>
        <time>2011-03-27T10:50:31Z</time>
      </trkpt>
      <trkpt lat="45.64126" lon="6.79447">
        <ele>1801.1</ele>
        <time>2011-03-27T10:50:33Z</time>
      </trkpt>
      <trkpt lat="45.64133" lon="6.79442">
        <ele>1799.9</ele>
        <time>2011-03-27T10:50:35Z</time>
      </trkpt>
      <trkpt lat="45.64137" lon="6.7944">
        <ele>1799.8</ele>
        <time>2011-03-27T10:50:36Z</time>
      </trkpt>
      <trkpt lat="45.64145" lon="6.79436">
        <ele>1799.4</ele>
        <time>2011-03-27T10:50:38Z</time>
      </trkpt>
      <trkpt lat="45.64152" lon="6.79435">
        <ele>1798.3</ele>
        <time>2011-03-27T10:50:40Z</time>
      </trkpt>
      <trkpt lat="45.6416" lon="6.79436">
        <ele>1797.4</ele>
        <time>2011-03-27T10:50:42Z</time>
      </trkpt>
      <trkpt lat="45.64169" lon="6.79436">
        <ele>1796.4</ele>
        <time>2011-03-27T10:50:44Z</time>
      </trkpt>
      <trkpt lat="45.64175" lon="6.79436">
        <ele>1796.2</ele>
        <time>2011-03-27T10:50:46Z</time>
      </trkpt>
      <trkpt lat="45.64182" lon="6.79431">
        <ele>1795.2</ele>
        <time>2011-03-27T10:50:49Z</time>
      </trkpt>
      <trkpt lat="45.64186" lon="6.79427">
        <ele>1794.6</ele>
        <time>2011-03-27T10:50:51Z</time>
      </trkpt>
      <trkpt lat="45.64192" lon="6.79426">
        <ele>1794.2</ele>
        <time>2011-03-27T10:50:52Z</time>
      </trkpt>
      <trkpt lat="45.642" lon="6.79421">
        <ele>1792.6</ele>
        <time>2011-03-27T10:51:04Z</time>
      </trkpt>
      <trkpt lat="45.64192" lon="6.79416">
        <ele>1791.8</ele>
        <time>2011-03-27T10:51:28Z</time>
      </trkpt>
      <trkpt lat="45.64191" lon="6.79417">
        <ele>1791.8</ele>
        <time>2011-03-27T10:51:29Z</time>
      </trkpt>
      <trkpt lat="45.64176" lon="6.7942">
        <ele>1791.2</ele>
        <time>2011-03-27T10:51:45Z</time>
      </trkpt>
      <trkpt lat="45.64167" lon="6.79422">
        <ele>1789.5</ele>
        <time>2011-03-27T10:51:51Z</time>
      </trkpt>
      <trkpt lat="45.64159" lon="6.7942">
        <ele>1789.2</ele>
        <time>2011-03-27T10:52:00Z</time>
      </trkpt>
      <trkpt lat="45.6415" lon="6.79423">
        <ele>1788.9</ele>
        <time>2011-03-27T10:52:13Z</time>
      </trkpt>
      <trkpt lat="45.64142" lon="6.79422">
        <ele>1787.9</ele>
        <time>2011-03-27T10:52:17Z</time>
      </trkpt>
      <trkpt lat="45.64135" lon="6.7942">
        <ele>1787.2</ele>
        <time>2011-03-27T10:52:20Z</time>
      </trkpt>
      <trkpt lat="45.64128" lon="6.79413">
        <ele>1786.1</ele>
        <time>2011-03-27T10:52:24Z</time>
      </trkpt>
      <trkpt lat="45.64121" lon="6.79414">
        <ele>1784.3</ele>
        <time>2011-03-27T10:52:28Z</time>
      </trkpt>
      <trkpt lat="45.64114" lon="6.79414">
        <ele>1783.5</ele>
        <time>2011-03-27T10:52:31Z</time>
      </trkpt>
      <trkpt lat="45.64111" lon="6.79414">
        <ele>1783.5</ele>
        <time>2011-03-27T10:52:32Z</time>
      </trkpt>
      <trkpt lat="45.64104" lon="6.79426">
        <ele>1781.8</ele>
        <time>2011-03-27T10:52:54Z</time>
      </trkpt>
      <trkpt lat="45.64112" lon="6.79427">
        <ele>1781.5</ele>
        <time>2011-03-27T10:54:24Z</time>
      </trkpt>
      <trkpt lat="45.64113" lon="6.79428">
        <ele>1781.5</ele>
        <time>2011-03-27T10:54:25Z</time>
      </trkpt>
      <trkpt lat="45.64113" lon="6.79429">
        <ele>1782.4</ele>
        <time>2011-03-27T10:54:29Z</time>
      </trkpt>
    </trkseg>
  </trk>
</gpx>